Observation data for Crane on 08/14/2019      Previous  Date  Next       Current Mesonet Observations  Soil Data  Daily Summary Page  Observations in Plain Language
KCR2 140500Z 27008KT 29/17 A3003 RMK A01 T02900171  RH  049%=      5-min Rain = 0
KCR2 140501Z 26008KT 29/17 A3003 RMK A01 T02890171  RH  049%=      5-min Rain = 0
KCR2 140502Z 26007KT 29/17 A3003 RMK A01 T02890171  RH  049%=      5-min Rain = 0
KCR2 140503Z 27008KT 29/17 A3003 RMK A01 T02890171  RH  049%=      5-min Rain = 0
KCR2 140504Z 26006KT 29/17 A3003 RMK A01 T02890171  RH  049%=      5-min Rain = 0
KCR2 140505Z 24005KT 29/17 A3003 RMK A01 T02880171  RH  049%=      5-min Rain = 0
KCR2 140506Z 25006KT 29/17 A3003 RMK A01 T02880171  RH  049%=      5-min Rain = 0
KCR2 140507Z 25007KT 29/17 A3003 RMK A01 T02880171  RH  049%=      5-min Rain = 0
KCR2 140508Z 25007KT 29/17 A3003 RMK A01 T02880171  RH  049%=      5-min Rain = 0
KCR2 140509Z 25006KT 29/17 A3003 RMK A01 T02870171  RH  049%=      5-min Rain = 0
KCR2 140510Z 25007KT 29/17 A3004 RMK A01 T02870172  RH  050%=      5-min Rain = 0
KCR2 140519Z 29005KT 29/17 A3005 RMK A01 T02860173  RH  050%=      5-min Rain = 0
KCR2 140520Z 28005KT 29/17 A3005 RMK A01 T02860173  RH  050%=      5-min Rain = 0
KCR2 140521Z 28006KT 29/17 A3005 RMK A01 T02860173  RH  050%=      5-min Rain = 0
KCR2 140522Z 29005KT 29/17 A3005 RMK A01 T02860173  RH  051%=      5-min Rain = 0
KCR2 140523Z 29006KT 29/17 A3005 RMK A01 T02860174  RH  051%=      5-min Rain = 0
KCR2 140524Z 29006KT 29/17 A3005 RMK A01 T02860173  RH  051%=      5-min Rain = 0
KCR2 140525Z 28005KT 29/17 A3005 RMK A01 T02860173  RH  051%=      5-min Rain = 0
KCR2 140526Z 28004KT 29/17 A3005 RMK A01 T02860173  RH  051%=      5-min Rain = 0
KCR2 140527Z 29004KT 29/17 A3004 RMK A01 T02860173  RH  051%=      5-min Rain = 0
KCR2 140528Z 29003KT 29/17 A3004 RMK A01 T02860173  RH  051%=      5-min Rain = 0
KCR2 140529Z 28003KT 29/17 A3004 RMK A01 T02860173  RH  051%=      5-min Rain = 0
KCR2 140530Z 27004KT 29/17 A3004 RMK A01 T02850173  RH  051%=      5-min Rain = 0
KCR2 140531Z 28003KT 29/17 A3004 RMK A01 T02860173  RH  051%=      5-min Rain = 0
KCR2 140532Z 28003KT 29/17 A3005 RMK A01 T02860174  RH  051%=      5-min Rain = 0
KCR2 140533Z 30003KT 29/17 A3005 RMK A01 T02850174  RH  051%=      5-min Rain = 0
KCR2 140534Z 30004KT 29/17 A3005 RMK A01 T02850173  RH  051%=      5-min Rain = 0
KCR2 140535Z 30003KT 29/17 A3005 RMK A01 T02850174  RH  051%=      5-min Rain = 0
KCR2 140536Z 31002KT 29/17 A3005 RMK A01 T02850173  RH  051%=      5-min Rain = 0
KCR2 140537Z 30002KT 28/17 A3005 RMK A01 T02840173  RH  051%=      5-min Rain = 0
KCR2 140538Z 29002KT 28/17 A3005 RMK A01 T02840174  RH  051%=      5-min Rain = 0
KCR2 140539Z 29003KT 28/17 A3005 RMK A01 T02830173  RH  051%=      5-min Rain = 0
KCR2 140540Z 28003KT 28/17 A3005 RMK A01 T02840173  RH  051%=      5-min Rain = 0
KCR2 140541Z 29003KT 28/17 A3005 RMK A01 T02840174  RH  051%=      5-min Rain = 0
KCR2 140542Z 29003KT 28/17 A3005 RMK A01 T02840174  RH  051%=      5-min Rain = 0
KCR2 140543Z 29002KT 28/17 A3005 RMK A01 T02840174  RH  051%=      5-min Rain = 0
KCR2 140544Z 29001KT 28/17 A3005 RMK A01 T02840174  RH  051%=      5-min Rain = 0
KCR2 140545Z 30000KT 28/17 A3005 RMK A01 T02840174  RH  051%=      5-min Rain = 0
KCR2 140546Z 36000KT 28/17 A3005 RMK A01 T02840174  RH  051%=      5-min Rain = 0
KCR2 140547Z 34000KT 28/17 A3005 RMK A01 T02840174  RH  051%=      5-min Rain = 0
KCR2 140548Z 00000KT 28/17 A3005 RMK A01 T02840174  RH  051%=      5-min Rain = 0
KCR2 140549Z 00000KT 28/17 A3005 RMK A01 T02840174  RH  051%=      5-min Rain = 0
KCR2 140550Z 00000KT 28/17 A3005 RMK A01 T02840173  RH  051%=      5-min Rain = 0
KCR2 140551Z 00000KT 28/17 A3005 RMK A01 T02840173  RH  051%=      5-min Rain = 0
KCR2 140552Z 00000KT 28/17 A3005 RMK A01 T02840173  RH  051%=      5-min Rain = 0
KCR2 140553Z 00000KT 28/17 A3005 RMK A01 T02840174  RH  051%=      5-min Rain = 0
KCR2 140554Z 00000KT 28/17 A3005 RMK A01 T02840174  RH  051%=      5-min Rain = 0
KCR2 140555Z 00000KT 28/17 A3005 RMK A01 T02840174  RH  051%=      5-min Rain = 0
KCR2 140556Z 19001KT 28/17 A3005 RMK A01 T02840174  RH  051%=      5-min Rain = 0
KCR2 140557Z 22001KT 28/17 A3005 RMK A01 T02840174  RH  051%=      5-min Rain = 0
KCR2 140558Z 22001KT 28/17 A3005 RMK A01 T02840174  RH  051%=      5-min Rain = 0
KCR2 140559Z 20001KT 28/17 A3004 RMK A01 T02840174  RH  051%=      5-min Rain = 0
KCR2 140600Z 20001KT 28/17 A3004 RMK A01 T02840174  RH  051%=      5-min Rain = 0
KCR2 140601Z 18001KT 28/17 A3004 RMK A01 T02840174  RH  051%=      5-min Rain = 0
KCR2 140602Z 19001KT 28/18 A3005 RMK A01 T02840175  RH  051%=      5-min Rain = 0
KCR2 140603Z 17001KT 28/18 A3005 RMK A01 T02840175  RH  052%=      5-min Rain = 0
KCR2 140604Z 16001KT 28/18 A3005 RMK A01 T02840175  RH  052%=      5-min Rain = 0
KCR2 140605Z 14001KT 28/18 A3005 RMK A01 T02840175  RH  052%=      5-min Rain = 0
KCR2 140606Z 14001KT 28/18 A3005 RMK A01 T02840175  RH  052%=      5-min Rain = 0
KCR2 140607Z 13001KT 28/17 A3005 RMK A01 T02840174  RH  051%=      5-min Rain = 0
KCR2 140608Z 13001KT 28/18 A3005 RMK A01 T02840175  RH  051%=      5-min Rain = 0
KCR2 140609Z 12001KT 28/17 A3005 RMK A01 T02840174  RH  051%=      5-min Rain = 0
KCR2 140610Z 12002KT 28/17 A3005 RMK A01 T02840174  RH  051%=      5-min Rain = 0
KCR2 140611Z 11002KT 28/17 A3005 RMK A01 T02840174  RH  051%=      5-min Rain = 0
KCR2 140612Z 11002KT 28/17 A3005 RMK A01 T02840174  RH  051%=      5-min Rain = 0
KCR2 140613Z 11003KT 28/17 A3005 RMK A01 T02830173  RH  051%=      5-min Rain = 0
KCR2 140614Z 11003KT 28/17 A3005 RMK A01 T02840174  RH  051%=      5-min Rain = 0
KCR2 140615Z 10003KT 28/17 A3005 RMK A01 T02830173  RH  051%=      5-min Rain = 0
KCR2 140616Z 10003KT 28/17 A3005 RMK A01 T02830173  RH  051%=      5-min Rain = 0
KCR2 140617Z 10003KT 28/17 A3004 RMK A01 T02830173  RH  051%=      5-min Rain = 0
KCR2 140618Z 10003KT 28/17 A3004 RMK A01 T02830173  RH  052%=      5-min Rain = 0
KCR2 140619Z 11003KT 28/17 A3004 RMK A01 T02830174  RH  052%=      5-min Rain = 0
KCR2 140620Z 11003KT 28/17 A3004 RMK A01 T02830174  RH  052%=      5-min Rain = 0
KCR2 140621Z 11003KT 28/17 A3004 RMK A01 T02820173  RH  052%=      5-min Rain = 0
KCR2 140622Z 10003KT 28/17 A3004 RMK A01 T02820173  RH  052%=      5-min Rain = 0
KCR2 140623Z 11003KT 28/17 A3004 RMK A01 T02820173  RH  052%=      5-min Rain = 0
KCR2 140624Z 10003KT 28/17 A3004 RMK A01 T02820173  RH  052%=      5-min Rain = 0
KCR2 140625Z 10004KT 28/17 A3004 RMK A01 T02820173  RH  052%=      5-min Rain = 0
KCR2 140626Z 10004KT 28/17 A3004 RMK A01 T02820174  RH  052%=      5-min Rain = 0
KCR2 140627Z 10003KT 28/17 A3004 RMK A01 T02810173  RH  052%=      5-min Rain = 0
KCR2 140628Z 11003KT 28/17 A3004 RMK A01 T02810173  RH  052%=      5-min Rain = 0
KCR2 140629Z 10003KT 28/17 A3004 RMK A01 T02810173  RH  052%=      5-min Rain = 0
KCR2 140630Z 10002KT 28/17 A3004 RMK A01 T02810173  RH  052%=      5-min Rain = 0
KCR2 140631Z 10002KT 28/17 A3004 RMK A01 T02810173  RH  052%=      5-min Rain = 0
KCR2 140632Z 09002KT 28/17 A3004 RMK A01 T02810173  RH  052%=      5-min Rain = 0
KCR2 140633Z 09002KT 28/17 A3004 RMK A01 T02800173  RH  052%=      5-min Rain = 0
KCR2 140634Z 09002KT 28/17 A3004 RMK A01 T02800173  RH  052%=      5-min Rain = 0
KCR2 140635Z 09002KT 28/17 A3004 RMK A01 T02800173  RH  052%=      5-min Rain = 0
KCR2 140636Z 09002KT 28/17 A3004 RMK A01 T02800173  RH  052%=      5-min Rain = 0
KCR2 140637Z 09002KT 28/17 A3004 RMK A01 T02810173  RH  052%=      5-min Rain = 0
KCR2 140638Z 09001KT 28/17 A3004 RMK A01 T02800173  RH  052%=      5-min Rain = 0
KCR2 140639Z 09001KT 28/17 A3004 RMK A01 T02800173  RH  052%=      5-min Rain = 0
KCR2 140640Z 07000KT 28/17 A3004 RMK A01 T02810173  RH  052%=      5-min Rain = 0
KCR2 140641Z 35001KT 28/17 A3005 RMK A01 T02810173  RH  052%=      5-min Rain = 0
KCR2 140642Z 34001KT 28/17 A3005 RMK A01 T02800172  RH  052%=      5-min Rain = 0
KCR2 140643Z 34002KT 28/17 A3004 RMK A01 T02770172  RH  053%=      5-min Rain = 0
KCR2 140644Z 35001KT 28/17 A3004 RMK A01 T02760172  RH  053%=      5-min Rain = 0
KCR2 140645Z 35001KT 28/17 A3004 RMK A01 T02750172  RH  053%=      5-min Rain = 0
KCR2 140646Z 36002KT 27/17 A3004 RMK A01 T02740172  RH  054%=      5-min Rain = 0
KCR2 140647Z 35003KT 27/17 A3004 RMK A01 T02740173  RH  054%=      5-min Rain = 0
KCR2 140648Z 36003KT 27/17 A3004 RMK A01 T02730172  RH  054%=      5-min Rain = 0
KCR2 140649Z 00003KT 27/17 A3004 RMK A01 T02730172  RH  054%=      5-min Rain = 0
KCR2 140650Z 00004KT 27/17 A3004 RMK A01 T02720172  RH  054%=      5-min Rain = 0
KCR2 140651Z 00004KT 27/17 A3004 RMK A01 T02720171  RH  054%=      5-min Rain = 0
KCR2 140652Z 00004KT 27/17 A3004 RMK A01 T02710171  RH  054%=      5-min Rain = 0
KCR2 140653Z 36003KT 27/17 A3004 RMK A01 T02710172  RH  054%=      5-min Rain = 0
KCR2 140654Z 35003KT 27/17 A3004 RMK A01 T02710171  RH  054%=      5-min Rain = 0
KCR2 140655Z 36003KT 27/17 A3004 RMK A01 T02710172  RH  054%=      5-min Rain = 0
KCR2 140656Z 00003KT 27/17 A3004 RMK A01 T02710172  RH  055%=      5-min Rain = 0
KCR2 140657Z 01003KT 27/17 A3005 RMK A01 T02710172  RH  055%=      5-min Rain = 0
KCR2 140658Z 01002KT 27/17 A3005 RMK A01 T02710172  RH  055%=      5-min Rain = 0
KCR2 140659Z 03003KT 27/17 A3005 RMK A01 T02710172  RH  055%=      5-min Rain = 0
KCR2 140700Z 03003KT 27/17 A3005 RMK A01 T02710172  RH  055%=      5-min Rain = 0
KCR2 140701Z 03003KT 27/17 A3005 RMK A01 T02720172  RH  055%=      5-min Rain = 0
KCR2 140702Z 03003KT 27/17 A3005 RMK A01 T02720172  RH  054%=      5-min Rain = 0
KCR2 140703Z 03003KT 27/17 A3005 RMK A01 T02730172  RH  054%=      5-min Rain = 0
KCR2 140704Z 03003KT 27/17 A3005 RMK A01 T02740172  RH  054%=      5-min Rain = 0
KCR2 140705Z 02003KT 27/17 A3005 RMK A01 T02740173  RH  054%=      5-min Rain = 0
KCR2 140706Z 03002KT 28/17 A3005 RMK A01 T02750173  RH  054%=      5-min Rain = 0
KCR2 140707Z 03001KT 28/17 A3005 RMK A01 T02750173  RH  054%=      5-min Rain = 0
KCR2 140708Z 01001KT 28/17 A3005 RMK A01 T02750173  RH  053%=      5-min Rain = 0
KCR2 140709Z 01001KT 28/17 A3005 RMK A01 T02760173  RH  053%=      5-min Rain = 0
KCR2 140710Z 03001KT 28/17 A3005 RMK A01 T02760172  RH  053%=      5-min Rain = 0
KCR2 140711Z 04001KT 28/17 A3005 RMK A01 T02760173  RH  053%=      5-min Rain = 0
KCR2 140712Z 03001KT 28/17 A3005 RMK A01 T02760173  RH  053%=      5-min Rain = 0
KCR2 140713Z 03002KT 28/17 A3005 RMK A01 T02760172  RH  053%=      5-min Rain = 0
KCR2 140714Z 04002KT 28/17 A3005 RMK A01 T02770173  RH  053%=      5-min Rain = 0
KCR2 140715Z 04002KT 28/17 A3005 RMK A01 T02770173  RH  053%=      5-min Rain = 0
KCR2 140716Z 05002KT 28/17 A3005 RMK A01 T02770173  RH  053%=      5-min Rain = 0
KCR2 140717Z 06002KT 28/17 A3005 RMK A01 T02780173  RH  053%=      5-min Rain = 0
KCR2 140718Z 05002KT 28/17 A3005 RMK A01 T02780173  RH  053%=      5-min Rain = 0
KCR2 140719Z 04002KT 28/17 A3005 RMK A01 T02780173  RH  053%=      5-min Rain = 0
KCR2 140720Z 03002KT 28/17 A3005 RMK A01 T02780173  RH  053%=      5-min Rain = 0
KCR2 140721Z 05002KT 28/17 A3005 RMK A01 T02780173  RH  053%=      5-min Rain = 0
KCR2 140722Z 06002KT 28/17 A3005 RMK A01 T02780174  RH  053%=      5-min Rain = 0
KCR2 140723Z 06002KT 28/17 A3005 RMK A01 T02780174  RH  053%=      5-min Rain = 0
KCR2 140724Z 05003KT 28/17 A3005 RMK A01 T02770174  RH  053%=      5-min Rain = 0
KCR2 140725Z 05002KT 28/17 A3005 RMK A01 T02770173  RH  053%=      5-min Rain = 0
KCR2 140726Z 06003KT 28/17 A3005 RMK A01 T02770173  RH  053%=      5-min Rain = 0
KCR2 140727Z 06002KT 28/17 A3005 RMK A01 T02770173  RH  053%=      5-min Rain = 0
KCR2 140728Z 06002KT 28/17 A3005 RMK A01 T02770173  RH  053%=      5-min Rain = 0
KCR2 140729Z 07003KT 28/17 A3005 RMK A01 T02770173  RH  053%=      5-min Rain = 0
KCR2 140730Z 07003KT 28/17 A3005 RMK A01 T02770173  RH  053%=      5-min Rain = 0
KCR2 140731Z 06003KT 28/17 A3005 RMK A01 T02770173  RH  053%=      5-min Rain = 0
KCR2 140732Z 06003KT 28/17 A3005 RMK A01 T02770172  RH  053%=      5-min Rain = 0
KCR2 140733Z 06003KT 28/17 A3005 RMK A01 T02770173  RH  053%=      5-min Rain = 0
KCR2 140734Z 06003KT 28/17 A3005 RMK A01 T02760172  RH  053%=      5-min Rain = 0
KCR2 140735Z 06003KT 28/17 A3005 RMK A01 T02760172  RH  053%=      5-min Rain = 0
KCR2 140736Z 07003KT 28/17 A3005 RMK A01 T02760172  RH  053%=      5-min Rain = 0
KCR2 140737Z 07002KT 28/17 A3005 RMK A01 T02760172  RH  053%=      5-min Rain = 0
KCR2 140738Z 07002KT 28/17 A3005 RMK A01 T02760172  RH  053%=      5-min Rain = 0
KCR2 140739Z 08001KT 28/17 A3005 RMK A01 T02760172  RH  053%=      5-min Rain = 0
KCR2 140740Z 09002KT 28/17 A3005 RMK A01 T02760172  RH  053%=      5-min Rain = 0
KCR2 140741Z 09002KT 28/17 A3005 RMK A01 T02760172  RH  053%=      5-min Rain = 0
KCR2 140742Z 10002KT 28/17 A3005 RMK A01 T02760172  RH  053%=      5-min Rain = 0
KCR2 140743Z 11002KT 28/17 A3005 RMK A01 T02760172  RH  053%=      5-min Rain = 0
KCR2 140744Z 11002KT 28/17 A3005 RMK A01 T02760172  RH  053%=      5-min Rain = 0
KCR2 140745Z 12003KT 28/17 A3005 RMK A01 T02750172  RH  053%=      5-min Rain = 0
KCR2 140746Z 13003KT 28/17 A3005 RMK A01 T02750172  RH  053%=      5-min Rain = 0
KCR2 140747Z 13003KT 28/17 A3005 RMK A01 T02750172  RH  053%=      5-min Rain = 0
KCR2 140748Z 14003KT 28/17 A3005 RMK A01 T02750172  RH  053%=      5-min Rain = 0
KCR2 140749Z 13003KT 28/17 A3005 RMK A01 T02750172  RH  053%=      5-min Rain = 0
KCR2 140750Z 12003KT 28/17 A3005 RMK A01 T02750172  RH  053%=      5-min Rain = 0
KCR2 140751Z 12003KT 28/17 A3005 RMK A01 T02750172  RH  053%=      5-min Rain = 0
KCR2 140752Z 12002KT 28/17 A3005 RMK A01 T02750171  RH  053%=      5-min Rain = 0
KCR2 140753Z 12002KT 28/17 A3005 RMK A01 T02750172  RH  053%=      5-min Rain = 0
KCR2 140754Z 12002KT 28/17 A3005 RMK A01 T02750172  RH  053%=      5-min Rain = 0
KCR2 140755Z 12002KT 28/17 A3005 RMK A01 T02750172  RH  053%=      5-min Rain = 0
KCR2 140756Z 12002KT 28/17 A3005 RMK A01 T02750172  RH  053%=      5-min Rain = 0
KCR2 140757Z 12002KT 28/17 A3005 RMK A01 T02750172  RH  053%=      5-min Rain = 0
KCR2 140758Z 13002KT 28/17 A3005 RMK A01 T02750172  RH  053%=      5-min Rain = 0
KCR2 140759Z 14002KT 28/17 A3004 RMK A01 T02750172  RH  053%=      5-min Rain = 0
KCR2 140800Z 15002KT 28/17 A3004 RMK A01 T02750172  RH  053%=      5-min Rain = 0
KCR2 140801Z 16002KT 28/17 A3004 RMK A01 T02750172  RH  053%=      5-min Rain = 0
KCR2 140802Z 16002KT 28/17 A3004 RMK A01 T02760171  RH  053%=      5-min Rain = 0
KCR2 140803Z 16002KT 28/17 A3004 RMK A01 T02760171  RH  053%=      5-min Rain = 0
KCR2 140804Z 16002KT 28/17 A3004 RMK A01 T02760171  RH  053%=      5-min Rain = 0
KCR2 140805Z 17002KT 28/17 A3004 RMK A01 T02760171  RH  053%=      5-min Rain = 0
KCR2 140806Z 18003KT 28/17 A3004 RMK A01 T02760172  RH  053%=      5-min Rain = 0
KCR2 140807Z 18003KT 28/17 A3004 RMK A01 T02770172  RH  053%=      5-min Rain = 0
KCR2 140808Z 19003KT 28/17 A3004 RMK A01 T02770171  RH  052%=      5-min Rain = 0
KCR2 140809Z 19003KT 28/17 A3004 RMK A01 T02780171  RH  052%=      5-min Rain = 0
KCR2 140810Z 19003KT 28/17 A3004 RMK A01 T02780171  RH  052%=      5-min Rain = 0
KCR2 140811Z 18003KT 28/17 A3004 RMK A01 T02780171  RH  052%=      5-min Rain = 0
KCR2 140812Z 18003KT 28/17 A3004 RMK A01 T02780171  RH  052%=      5-min Rain = 0
KCR2 140813Z 17003KT 28/17 A3004 RMK A01 T02780171  RH  052%=      5-min Rain = 0
KCR2 140814Z 17003KT 28/17 A3004 RMK A01 T02780171  RH  052%=      5-min Rain = 0
KCR2 140815Z 17003KT 28/17 A3004 RMK A01 T02780171  RH  052%=      5-min Rain = 0
KCR2 140816Z 17003KT 28/17 A3004 RMK A01 T02780172  RH  052%=      5-min Rain = 0
KCR2 140817Z 17004KT 28/17 A3004 RMK A01 T02780172  RH  053%=      5-min Rain = 0
KCR2 140818Z 17003KT 28/17 A3004 RMK A01 T02780172  RH  053%=      5-min Rain = 0
KCR2 140819Z 18003KT 28/17 A3004 RMK A01 T02780173  RH  053%=      5-min Rain = 0
KCR2 140820Z 18003KT 28/17 A3004 RMK A01 T02780173  RH  053%=      5-min Rain = 0
KCR2 140821Z 19003KT 28/17 A3004 RMK A01 T02780172  RH  053%=      5-min Rain = 0
KCR2 140822Z 20003KT 28/17 A3004 RMK A01 T02780174  RH  053%=      5-min Rain = 0
KCR2 140823Z 20003KT 28/17 A3004 RMK A01 T02780173  RH  053%=      5-min Rain = 0
KCR2 140824Z 21003KT 28/17 A3004 RMK A01 T02770173  RH  053%=      5-min Rain = 0
KCR2 140825Z 21003KT 28/17 A3004 RMK A01 T02770173  RH  053%=      5-min Rain = 0
KCR2 140826Z 21003KT 28/17 A3004 RMK A01 T02770173  RH  053%=      5-min Rain = 0
KCR2 140827Z 21003KT 28/17 A3004 RMK A01 T02760172  RH  053%=      5-min Rain = 0
KCR2 140828Z 21003KT 28/17 A3004 RMK A01 T02760172  RH  053%=      5-min Rain = 0
KCR2 140829Z 20003KT 28/17 A3004 RMK A01 T02750173  RH  053%=      5-min Rain = 0
KCR2 140830Z 20003KT 28/17 A3004 RMK A01 T02750173  RH  054%=      5-min Rain = 0
KCR2 140831Z 20002KT 28/17 A3004 RMK A01 T02750173  RH  054%=      5-min Rain = 0
KCR2 140832Z 20002KT 28/17 A3004 RMK A01 T02750173  RH  054%=      5-min Rain = 0
KCR2 140833Z 21002KT 27/17 A3004 RMK A01 T02740173  RH  054%=      5-min Rain = 0
KCR2 140834Z 21002KT 28/17 A3004 RMK A01 T02750173  RH  054%=      5-min Rain = 0
KCR2 140835Z 20002KT 27/17 A3004 RMK A01 T02740173  RH  054%=      5-min Rain = 0
KCR2 140836Z 19002KT 28/17 A3004 RMK A01 T02750173  RH  054%=      5-min Rain = 0
KCR2 140837Z 18003KT 27/17 A3004 RMK A01 T02740172  RH  054%=      5-min Rain = 0
KCR2 140838Z 18002KT 27/17 A3004 RMK A01 T02740172  RH  054%=      5-min Rain = 0
KCR2 140839Z 18002KT 27/17 A3004 RMK A01 T02740172  RH  053%=      5-min Rain = 0
KCR2 140840Z 18002KT 28/17 A3004 RMK A01 T02750172  RH  053%=      5-min Rain = 0
KCR2 140841Z 17003KT 27/17 A3004 RMK A01 T02740172  RH  054%=      5-min Rain = 0
KCR2 140842Z 17003KT 27/17 A3004 RMK A01 T02740172  RH  054%=      5-min Rain = 0
KCR2 140843Z 17003KT 28/17 A3004 RMK A01 T02750173  RH  054%=      5-min Rain = 0
KCR2 140844Z 17004KT 28/17 A3004 RMK A01 T02750173  RH  054%=      5-min Rain = 0
KCR2 140845Z 16003KT 28/17 A3004 RMK A01 T02750173  RH  054%=      5-min Rain = 0
KCR2 140846Z 16003KT 28/17 A3004 RMK A01 T02750173  RH  054%=      5-min Rain = 0
KCR2 140847Z 17003KT 28/17 A3004 RMK A01 T02760173  RH  054%=      5-min Rain = 0
KCR2 140848Z 17003KT 28/17 A3004 RMK A01 T02760173  RH  053%=      5-min Rain = 0
KCR2 140849Z 17003KT 28/17 A3004 RMK A01 T02760173  RH  053%=      5-min Rain = 0
KCR2 140850Z 17003KT 28/17 A3004 RMK A01 T02770173  RH  053%=      5-min Rain = 0
KCR2 140851Z 18003KT 28/17 A3004 RMK A01 T02770173  RH  053%=      5-min Rain = 0
KCR2 140852Z 18003KT 28/17 A3004 RMK A01 T02770173  RH  053%=      5-min Rain = 0
KCR2 140853Z 18002KT 28/17 A3004 RMK A01 T02770173  RH  053%=      5-min Rain = 0
KCR2 140854Z 19002KT 28/17 A3004 RMK A01 T02770173  RH  053%=      5-min Rain = 0
KCR2 140855Z 19003KT 28/17 A3004 RMK A01 T02770173  RH  053%=      5-min Rain = 0
KCR2 140856Z 18003KT 28/17 A3004 RMK A01 T02770173  RH  053%=      5-min Rain = 0
KCR2 140857Z 18003KT 28/17 A3004 RMK A01 T02770173  RH  053%=      5-min Rain = 0
KCR2 140858Z 18003KT 28/17 A3004 RMK A01 T02770173  RH  053%=      5-min Rain = 0
KCR2 140859Z 19003KT 28/17 A3003 RMK A01 T02770173  RH  053%=      5-min Rain = 0
KCR2 140900Z 19003KT 28/17 A3003 RMK A01 T02770174  RH  053%=      5-min Rain = 0
KCR2 140901Z 19003KT 28/17 A3003 RMK A01 T02770174  RH  053%=      5-min Rain = 0
KCR2 140902Z 20003KT 28/17 A3003 RMK A01 T02770174  RH  054%=      5-min Rain = 0
KCR2 140903Z 19003KT 28/17 A3003 RMK A01 T02760174  RH  054%=      5-min Rain = 0
KCR2 140904Z 19003KT 28/17 A3003 RMK A01 T02760174  RH  054%=      5-min Rain = 0
KCR2 140905Z 19004KT 28/17 A3003 RMK A01 T02750173  RH  054%=      5-min Rain = 0
KCR2 140906Z 19004KT 27/17 A3003 RMK A01 T02740173  RH  054%=      5-min Rain = 0
KCR2 140907Z 19005KT 27/17 A3003 RMK A01 T02740173  RH  054%=      5-min Rain = 0
KCR2 140908Z 19005KT 27/17 A3003 RMK A01 T02740173  RH  054%=      5-min Rain = 0
KCR2 140909Z 20005KT 27/17 A3003 RMK A01 T02740173  RH  054%=      5-min Rain = 0
KCR2 140910Z 20006KT 27/17 A3003 RMK A01 T02740173  RH  054%=      5-min Rain = 0
KCR2 140911Z 20005KT 27/17 A3003 RMK A01 T02740173  RH  054%=      5-min Rain = 0
KCR2 140912Z 20006KT 27/17 A3003 RMK A01 T02740173  RH  054%=      5-min Rain = 0
KCR2 140913Z 20006KT 27/17 A3003 RMK A01 T02730173  RH  054%=      5-min Rain = 0
KCR2 140914Z 20006KT 27/17 A3003 RMK A01 T02730174  RH  054%=      5-min Rain = 0
KCR2 140915Z 19005KT 27/17 A3003 RMK A01 T02730173  RH  055%=      5-min Rain = 0
KCR2 140916Z 20005KT 27/17 A3003 RMK A01 T02720173  RH  055%=      5-min Rain = 0
KCR2 140917Z 19004KT 27/17 A3003 RMK A01 T02720173  RH  055%=      5-min Rain = 0
KCR2 140918Z 19004KT 27/17 A3003 RMK A01 T02720173  RH  055%=      5-min Rain = 0
KCR2 140919Z 19004KT 27/17 A3003 RMK A01 T02720173  RH  055%=      5-min Rain = 0
KCR2 140920Z 19004KT 27/17 A3003 RMK A01 T02710173  RH  055%=      5-min Rain = 0
KCR2 140921Z 18004KT 27/17 A3003 RMK A01 T02720173  RH  055%=      5-min Rain = 0
KCR2 140922Z 19003KT 27/17 A3003 RMK A01 T02720173  RH  055%=      5-min Rain = 0
KCR2 140923Z 19003KT 27/17 A3003 RMK A01 T02720173  RH  054%=      5-min Rain = 0
KCR2 140924Z 19003KT 27/17 A3003 RMK A01 T02730173  RH  054%=      5-min Rain = 0
KCR2 140925Z 20003KT 27/17 A3003 RMK A01 T02730172  RH  054%=      5-min Rain = 0
KCR2 140926Z 20004KT 27/17 A3003 RMK A01 T02730172  RH  054%=      5-min Rain = 0
KCR2 140927Z 21004KT 27/17 A3003 RMK A01 T02730173  RH  054%=      5-min Rain = 0
KCR2 140928Z 21004KT 27/17 A3003 RMK A01 T02720173  RH  054%=      5-min Rain = 0
KCR2 140929Z 21004KT 27/17 A3003 RMK A01 T02710172  RH  055%=      5-min Rain = 0
KCR2 140930Z 20005KT 27/17 A3003 RMK A01 T02700172  RH  055%=      5-min Rain = 0
KCR2 140931Z 21004KT 27/17 A3003 RMK A01 T02690172  RH  055%=      5-min Rain = 0
KCR2 140932Z 20005KT 27/17 A3003 RMK A01 T02690171  RH  055%=      5-min Rain = 0
KCR2 140933Z 20005KT 27/17 A3003 RMK A01 T02680171  RH  055%=      5-min Rain = 0
KCR2 140934Z 20005KT 27/17 A3003 RMK A01 T02680171  RH  055%=      5-min Rain = 0
KCR2 140935Z 20005KT 27/17 A3003 RMK A01 T02670171  RH  055%=      5-min Rain = 0
KCR2 140936Z 20006KT 27/17 A3003 RMK A01 T02670171  RH  056%=      5-min Rain = 0
KCR2 140937Z 20006KT 27/17 A3003 RMK A01 T02670171  RH  056%=      5-min Rain = 0
KCR2 140938Z 20006KT 27/17 A3003 RMK A01 T02670171  RH  056%=      5-min Rain = 0
KCR2 140939Z 20005KT 27/17 A3003 RMK A01 T02660171  RH  056%=      5-min Rain = 0
KCR2 140940Z 20005KT 27/17 A3003 RMK A01 T02660171  RH  056%=      5-min Rain = 0
KCR2 140941Z 20005KT 27/17 A3003 RMK A01 T02660171  RH  056%=      5-min Rain = 0
KCR2 140942Z 20005KT 27/17 A3003 RMK A01 T02660171  RH  056%=      5-min Rain = 0
KCR2 140943Z 20005KT 27/17 A3003 RMK A01 T02660171  RH  056%=      5-min Rain = 0
KCR2 140944Z 20005KT 27/17 A3003 RMK A01 T02660171  RH  056%=      5-min Rain = 0
KCR2 140945Z 20004KT 27/17 A3003 RMK A01 T02660171  RH  056%=      5-min Rain = 0
KCR2 140946Z 20004KT 27/17 A3003 RMK A01 T02660171  RH  056%=      5-min Rain = 0
KCR2 140947Z 20004KT 27/17 A3003 RMK A01 T02660171  RH  056%=      5-min Rain = 0
KCR2 140948Z 20004KT 27/17 A3003 RMK A01 T02660171  RH  056%=      5-min Rain = 0
KCR2 140949Z 19004KT 27/17 A3003 RMK A01 T02660171  RH  056%=      5-min Rain = 0
KCR2 140950Z 19004KT 27/17 A3003 RMK A01 T02660171  RH  056%=      5-min Rain = 0
KCR2 140951Z 19004KT 27/17 A3003 RMK A01 T02660171  RH  056%=      5-min Rain = 0
KCR2 140952Z 19004KT 27/17 A3003 RMK A01 T02660170  RH  056%=      5-min Rain = 0
KCR2 140953Z 19005KT 27/17 A3002 RMK A01 T02660170  RH  056%=      5-min Rain = 0
KCR2 140954Z 19006KT 27/17 A3002 RMK A01 T02670170  RH  055%=      5-min Rain = 0
KCR2 140955Z 19006KT 27/17 A3002 RMK A01 T02670170  RH  055%=      5-min Rain = 0
KCR2 140956Z 19005KT 27/17 A3002 RMK A01 T02680171  RH  055%=      5-min Rain = 0
KCR2 140957Z 19005KT 27/17 A3003 RMK A01 T02680171  RH  055%=      5-min Rain = 0
KCR2 140958Z 19005KT 27/17 A3003 RMK A01 T02680170  RH  055%=      5-min Rain = 0
KCR2 140959Z 19005KT 27/17 A3003 RMK A01 T02680170  RH  055%=      5-min Rain = 0
KCR2 141000Z 19005KT 27/17 A3003 RMK A01 T02680170  RH  055%=      5-min Rain = 0
KCR2 141001Z 19004KT 27/17 A3003 RMK A01 T02680170  RH  055%=      5-min Rain = 0
KCR2 141002Z 19005KT 27/17 A3003 RMK A01 T02680170  RH  055%=      5-min Rain = 0
KCR2 141003Z 19004KT 27/17 A3003 RMK A01 T02680170  RH  055%=      5-min Rain = 0
KCR2 141004Z 20004KT 27/17 A3003 RMK A01 T02680170  RH  055%=      5-min Rain = 0
KCR2 141005Z 19004KT 27/17 A3003 RMK A01 T02680170  RH  055%=      5-min Rain = 0
KCR2 141006Z 20004KT 27/17 A3003 RMK A01 T02680170  RH  055%=      5-min Rain = 0
KCR2 141007Z 20004KT 27/17 A3003 RMK A01 T02680170  RH  055%=      5-min Rain = 0
KCR2 141008Z 20004KT 27/17 A3003 RMK A01 T02680170  RH  055%=      5-min Rain = 0
KCR2 141009Z 20004KT 27/17 A3003 RMK A01 T02680170  RH  055%=      5-min Rain = 0
KCR2 141010Z 20004KT 27/17 A3003 RMK A01 T02680170  RH  055%=      5-min Rain = 0
KCR2 141011Z 20003KT 27/17 A3003 RMK A01 T02670169  RH  055%=      5-min Rain = 0
KCR2 141012Z 20003KT 27/17 A3003 RMK A01 T02670170  RH  055%=      5-min Rain = 0
KCR2 141013Z 20003KT 27/17 A3003 RMK A01 T02670170  RH  055%=      5-min Rain = 0
KCR2 141014Z 20003KT 27/17 A3003 RMK A01 T02660169  RH  055%=      5-min Rain = 0
KCR2 141015Z 20003KT 27/17 A3003 RMK A01 T02660170  RH  055%=      5-min Rain = 0
KCR2 141016Z 20003KT 27/17 A3003 RMK A01 T02660169  RH  055%=      5-min Rain = 0
KCR2 141017Z 20003KT 27/17 A3003 RMK A01 T02660169  RH  056%=      5-min Rain = 0
KCR2 141018Z 19003KT 27/17 A3003 RMK A01 T02650169  RH  056%=      5-min Rain = 0
KCR2 141019Z 19002KT 27/17 A3003 RMK A01 T02650169  RH  056%=      5-min Rain = 0
KCR2 141020Z 18001KT 26/17 A3003 RMK A01 T02640169  RH  056%=      5-min Rain = 0
KCR2 141021Z 18001KT 26/17 A3003 RMK A01 T02640169  RH  056%=      5-min Rain = 0
KCR2 141022Z 18001KT 26/17 A3003 RMK A01 T02640169  RH  056%=      5-min Rain = 0
KCR2 141023Z 20001KT 26/17 A3003 RMK A01 T02640169  RH  056%=      5-min Rain = 0
KCR2 141024Z 20001KT 26/17 A3003 RMK A01 T02640170  RH  056%=      5-min Rain = 0
KCR2 141025Z 21001KT 26/17 A3003 RMK A01 T02630170  RH  057%=      5-min Rain = 0
KCR2 141026Z 22001KT 26/17 A3003 RMK A01 T02630170  RH  057%=      5-min Rain = 0
KCR2 141027Z 24000KT 26/17 A3003 RMK A01 T02630171  RH  057%=      5-min Rain = 0
KCR2 141028Z 26000KT 26/17 A3003 RMK A01 T02620171  RH  057%=      5-min Rain = 0
KCR2 141029Z 00000KT 26/17 A3003 RMK A01 T02620171  RH  057%=      5-min Rain = 0
KCR2 141030Z 00000KT 26/17 A3003 RMK A01 T02620171  RH  057%=      5-min Rain = 0
KCR2 141031Z 00000KT 26/17 A3003 RMK A01 T02610171  RH  057%=      5-min Rain = 0
KCR2 141032Z 00000KT 26/17 A3003 RMK A01 T02610171  RH  057%=      5-min Rain = 0
KCR2 141033Z 04000KT 26/17 A3003 RMK A01 T02610171  RH  058%=      5-min Rain = 0
KCR2 141034Z 05001KT 26/17 A3003 RMK A01 T02610171  RH  058%=      5-min Rain = 0
KCR2 141035Z 04001KT 26/17 A3003 RMK A01 T02600170  RH  058%=      5-min Rain = 0
KCR2 141036Z 04002KT 26/17 A3003 RMK A01 T02580170  RH  058%=      5-min Rain = 0
KCR2 141037Z 04002KT 26/17 A3003 RMK A01 T02560169  RH  059%=      5-min Rain = 0
KCR2 141038Z 03002KT 26/17 A3004 RMK A01 T02550169  RH  059%=      5-min Rain = 0
KCR2 141039Z 04003KT 25/17 A3004 RMK A01 T02540168  RH  059%=      5-min Rain = 0
KCR2 141040Z 03003KT 25/17 A3004 RMK A01 T02540168  RH  059%=      5-min Rain = 0
KCR2 141041Z 03003KT 25/17 A3004 RMK A01 T02530169  RH  059%=      5-min Rain = 0
KCR2 141042Z 02004KT 25/17 A3004 RMK A01 T02520168  RH  059%=      5-min Rain = 0
KCR2 141043Z 03004KT 25/17 A3004 RMK A01 T02520169  RH  060%=      5-min Rain = 0
KCR2 141044Z 03004KT 25/17 A3004 RMK A01 T02510169  RH  060%=      5-min Rain = 0
KCR2 141045Z 03003KT 25/17 A3004 RMK A01 T02510169  RH  060%=      5-min Rain = 0
KCR2 141046Z 03004KT 25/17 A3004 RMK A01 T02510170  RH  061%=      5-min Rain = 0
KCR2 141047Z 04004KT 25/17 A3004 RMK A01 T02510170  RH  061%=      5-min Rain = 0
KCR2 141048Z 04003KT 25/17 A3004 RMK A01 T02510171  RH  061%=      5-min Rain = 0
KCR2 141049Z 04003KT 25/17 A3004 RMK A01 T02510171  RH  061%=      5-min Rain = 0
KCR2 141050Z 04003KT 25/17 A3004 RMK A01 T02500171  RH  061%=      5-min Rain = 0
KCR2 141051Z 03003KT 25/17 A3004 RMK A01 T02500172  RH  062%=      5-min Rain = 0
KCR2 141052Z 03003KT 25/17 A3004 RMK A01 T02500171  RH  062%=      5-min Rain = 0
KCR2 141053Z 03003KT 25/17 A3004 RMK A01 T02500171  RH  062%=      5-min Rain = 0
KCR2 141054Z 03003KT 25/17 A3004 RMK A01 T02490171  RH  062%=      5-min Rain = 0
KCR2 141055Z 02003KT 25/17 A3004 RMK A01 T02500171  RH  062%=      5-min Rain = 0
KCR2 141056Z 02002KT 25/17 A3004 RMK A01 T02490171  RH  062%=      5-min Rain = 0
KCR2 141057Z 01002KT 25/17 A3004 RMK A01 T02490171  RH  062%=      5-min Rain = 0
KCR2 141058Z 36002KT 25/17 A3004 RMK A01 T02490172  RH  062%=      5-min Rain = 0
KCR2 141059Z 35002KT 25/17 A3004 RMK A01 T02490172  RH  062%=      5-min Rain = 0
KCR2 141100Z 35003KT 25/17 A3004 RMK A01 T02490172  RH  062%=      5-min Rain = 0
KCR2 141101Z 34003KT 25/17 A3004 RMK A01 T02490172  RH  062%=      5-min Rain = 0
KCR2 141102Z 33003KT 25/17 A3004 RMK A01 T02490171  RH  062%=      5-min Rain = 0
KCR2 141103Z 33003KT 25/17 A3004 RMK A01 T02480170  RH  062%=      5-min Rain = 0
KCR2 141104Z 32004KT 25/17 A3004 RMK A01 T02470168  RH  062%=      5-min Rain = 0
KCR2 141105Z 31004KT 25/17 A3004 RMK A01 T02450168  RH  062%=      5-min Rain = 0
KCR2 141106Z 33004KT 24/17 A3004 RMK A01 T02440168  RH  062%=      5-min Rain = 0
KCR2 141107Z 32004KT 24/17 A3004 RMK A01 T02430167  RH  062%=      5-min Rain = 0
KCR2 141108Z 32004KT 24/17 A3004 RMK A01 T02430167  RH  063%=      5-min Rain = 0
KCR2 141109Z 33004KT 24/17 A3004 RMK A01 T02430167  RH  063%=      5-min Rain = 0
KCR2 141110Z 34004KT 24/17 A3004 RMK A01 T02420167  RH  063%=      5-min Rain = 0
KCR2 141111Z 34004KT 24/17 A3004 RMK A01 T02410167  RH  063%=      5-min Rain = 0
KCR2 141112Z 35004KT 24/17 A3004 RMK A01 T02400167  RH  064%=      5-min Rain = 0
KCR2 141113Z 35004KT 24/17 A3004 RMK A01 T02400167  RH  064%=      5-min Rain = 0
KCR2 141114Z 35004KT 24/17 A3004 RMK A01 T02400167  RH  064%=      5-min Rain = 0
KCR2 141115Z 35004KT 24/17 A3004 RMK A01 T02400167  RH  064%=      5-min Rain = 0
KCR2 141116Z 35004KT 24/17 A3004 RMK A01 T02400167  RH  064%=      5-min Rain = 0
KCR2 141117Z 35005KT 24/17 A3005 RMK A01 T02400167  RH  064%=      5-min Rain = 0
KCR2 141118Z 35005KT 24/17 A3005 RMK A01 T02400167  RH  064%=      5-min Rain = 0
KCR2 141119Z 35005KT 24/17 A3005 RMK A01 T02400167  RH  064%=      5-min Rain = 0
KCR2 141120Z 36006KT 24/17 A3005 RMK A01 T02400167  RH  064%=      5-min Rain = 0
KCR2 141121Z 36006KT 24/17 A3005 RMK A01 T02400168  RH  064%=      5-min Rain = 0
KCR2 141122Z 00006KT 24/17 A3005 RMK A01 T02400168  RH  064%=      5-min Rain = 0
KCR2 141123Z 01006KT 24/17 A3005 RMK A01 T02400168  RH  064%=      5-min Rain = 0
KCR2 141124Z 01006KT 24/17 A3005 RMK A01 T02410169  RH  064%=      5-min Rain = 0
KCR2 141125Z 01005KT 24/17 A3006 RMK A01 T02400168  RH  064%=      5-min Rain = 0
KCR2 141126Z 02005KT 24/17 A3006 RMK A01 T02410168  RH  064%=      5-min Rain = 0
KCR2 141127Z 02005KT 24/17 A3006 RMK A01 T02410168  RH  064%=      5-min Rain = 0
KCR2 141128Z 02006KT 24/17 A3006 RMK A01 T02410168  RH  064%=      5-min Rain = 0
KCR2 141129Z 02006KT 24/17 A3006 RMK A01 T02410169  RH  064%=      5-min Rain = 0
KCR2 141130Z 02006KT 24/17 A3006 RMK A01 T02410169  RH  064%=      5-min Rain = 0
KCR2 141131Z 02005KT 24/17 A3006 RMK A01 T02410169  RH  064%=      5-min Rain = 0
KCR2 141132Z 02005KT 24/17 A3006 RMK A01 T02410169  RH  064%=      5-min Rain = 0
KCR2 141133Z 02005KT 24/17 A3006 RMK A01 T02410169  RH  064%=      5-min Rain = 0
KCR2 141134Z 02005KT 24/17 A3006 RMK A01 T02410169  RH  064%=      5-min Rain = 0
KCR2 141135Z 02005KT 24/17 A3006 RMK A01 T02410169  RH  064%=      5-min Rain = 0
KCR2 141136Z 02004KT 24/17 A3006 RMK A01 T02410169  RH  064%=      5-min Rain = 0
KCR2 141137Z 02004KT 24/17 A3006 RMK A01 T02410170  RH  064%=      5-min Rain = 0
KCR2 141138Z 02004KT 24/17 A3006 RMK A01 T02410170  RH  064%=      5-min Rain = 0
KCR2 141139Z 03004KT 24/17 A3006 RMK A01 T02410170  RH  064%=      5-min Rain = 0
KCR2 141140Z 03004KT 24/17 A3006 RMK A01 T02410169  RH  064%=      5-min Rain = 0
KCR2 141141Z 03004KT 24/17 A3006 RMK A01 T02410170  RH  064%=      5-min Rain = 0
KCR2 141142Z 03004KT 24/17 A3006 RMK A01 T02410170  RH  064%=      5-min Rain = 0
KCR2 141143Z 03005KT 24/17 A3006 RMK A01 T02410170  RH  064%=      5-min Rain = 0
KCR2 141144Z 04005KT 24/17 A3007 RMK A01 T02410170  RH  064%=      5-min Rain = 0
KCR2 141145Z 04005KT 24/17 A3007 RMK A01 T02410170  RH  064%=      5-min Rain = 0
KCR2 141146Z 04004KT 24/17 A3007 RMK A01 T02410170  RH  064%=      5-min Rain = 0
KCR2 141147Z 04004KT 24/17 A3007 RMK A01 T02410169  RH  064%=      5-min Rain = 0
KCR2 141148Z 04004KT 24/17 A3007 RMK A01 T02410169  RH  064%=      5-min Rain = 0
KCR2 141149Z 05003KT 24/17 A3007 RMK A01 T02420169  RH  064%=      5-min Rain = 0
KCR2 141150Z 06003KT 24/17 A3007 RMK A01 T02420170  RH  064%=      5-min Rain = 0
KCR2 141151Z 07003KT 24/17 A3007 RMK A01 T02420169  RH  064%=      5-min Rain = 0
KCR2 141152Z 06003KT 24/17 A3007 RMK A01 T02420169  RH  064%=      5-min Rain = 0
KCR2 141153Z 07003KT 24/17 A3007 RMK A01 T02420169  RH  064%=      5-min Rain = 0
KCR2 141154Z 07003KT 24/17 A3007 RMK A01 T02420169  RH  063%=      5-min Rain = 0
KCR2 141155Z 07003KT 24/17 A3007 RMK A01 T02430169  RH  063%=      5-min Rain = 0
KCR2 141156Z 07003KT 24/17 A3007 RMK A01 T02430169  RH  063%=      5-min Rain = 0
KCR2 141157Z 07004KT 24/17 A3007 RMK A01 T02430169  RH  063%=      5-min Rain = 0
KCR2 141158Z 07004KT 24/17 A3007 RMK A01 T02430169  RH  063%=      5-min Rain = 0
KCR2 141159Z 08005KT 24/17 A3007 RMK A01 T02430169  RH  063%=      5-min Rain = 0
KCR2 141200Z 08005KT 24/17 A3007 RMK A01 T02420169  RH  064%=      5-min Rain = 0
KCR2 141201Z 07006KT 24/17 A3007 RMK A01 T02420169  RH  064%=      5-min Rain = 0
KCR2 141202Z 08006KT 24/17 A3007 RMK A01 T02420169  RH  064%=      5-min Rain = 0
KCR2 141203Z 10005KT 24/17 A3007 RMK A01 T02430169  RH  063%=      5-min Rain = 0
KCR2 141204Z 09005KT 24/17 A3007 RMK A01 T02430169  RH  063%=      5-min Rain = 0
KCR2 141205Z 09004KT 24/17 A3007 RMK A01 T02430168  RH  063%=      5-min Rain = 0
KCR2 141206Z 09004KT 24/17 A3007 RMK A01 T02430169  RH  063%=      5-min Rain = 0
KCR2 141207Z 09004KT 24/17 A3007 RMK A01 T02420168  RH  063%=      5-min Rain = 0
KCR2 141208Z 09005KT 24/17 A3007 RMK A01 T02420168  RH  063%=      5-min Rain = 0
KCR2 141209Z 08005KT 24/17 A3007 RMK A01 T02420168  RH  063%=      5-min Rain = 0
KCR2 141210Z 07006KT 24/17 A3007 RMK A01 T02420168  RH  063%=      5-min Rain = 0
KCR2 141211Z 08006KT 24/17 A3007 RMK A01 T02430168  RH  063%=      5-min Rain = 0
KCR2 141212Z 09005KT 24/17 A3007 RMK A01 T02430168  RH  063%=      5-min Rain = 0
KCR2 141213Z 08004KT 24/17 A3007 RMK A01 T02440167  RH  062%=      5-min Rain = 0
KCR2 141214Z 07004KT 24/17 A3007 RMK A01 T02440168  RH  062%=      5-min Rain = 0
KCR2 141215Z 07005KT 25/17 A3007 RMK A01 T02450168  RH  062%=      5-min Rain = 0
KCR2 141216Z 08005KT 25/17 A3007 RMK A01 T02460168  RH  062%=      5-min Rain = 0
KCR2 141217Z 11005KT 25/17 A3007 RMK A01 T02470168  RH  061%=      5-min Rain = 0
KCR2 141218Z 10004KT 25/17 A3007 RMK A01 T02480168  RH  061%=      5-min Rain = 0
KCR2 141219Z 08003KT 25/17 A3007 RMK A01 T02480168  RH  061%=      5-min Rain = 0
KCR2 141220Z 09003KT 25/17 A3007 RMK A01 T02480168  RH  061%=      5-min Rain = 0
KCR2 141221Z 08003KT 25/17 A3007 RMK A01 T02480168  RH  061%=      5-min Rain = 0
KCR2 141222Z 07003KT 25/17 A3007 RMK A01 T02480168  RH  061%=      5-min Rain = 0
KCR2 141223Z 07002KT 25/17 A3007 RMK A01 T02480168  RH  061%=      5-min Rain = 0
KCR2 141224Z 09003KT 25/17 A3007 RMK A01 T02480168  RH  061%=      5-min Rain = 0
KCR2 141225Z 09003KT 25/17 A3007 RMK A01 T02480168  RH  061%=      5-min Rain = 0
KCR2 141226Z 09002KT 25/17 A3007 RMK A01 T02480168  RH  061%=      5-min Rain = 0
KCR2 141227Z 08002KT 25/17 A3007 RMK A01 T02470168  RH  061%=      5-min Rain = 0
KCR2 141228Z 10002KT 25/17 A3007 RMK A01 T02480168  RH  061%=      5-min Rain = 0
KCR2 141229Z 10001KT 25/17 A3007 RMK A01 T02480168  RH  061%=      5-min Rain = 0
KCR2 141230Z 07002KT 25/17 A3007 RMK A01 T02480168  RH  061%=      5-min Rain = 0
KCR2 141231Z 10001KT 25/17 A3007 RMK A01 T02490169  RH  061%=      5-min Rain = 0
KCR2 141232Z 10002KT 25/17 A3007 RMK A01 T02500169  RH  061%=      5-min Rain = 0
KCR2 141233Z 08002KT 25/17 A3007 RMK A01 T02510169  RH  060%=      5-min Rain = 0
KCR2 141234Z 09001KT 25/17 A3007 RMK A01 T02520169  RH  060%=      5-min Rain = 0
KCR2 141235Z 08001KT 25/17 A3007 RMK A01 T02520169  RH  060%=      5-min Rain = 0
KCR2 141236Z 09002KT 25/17 A3007 RMK A01 T02520168  RH  060%=      5-min Rain = 0
KCR2 141237Z 10002KT 25/17 A3007 RMK A01 T02520168  RH  060%=      5-min Rain = 0
KCR2 141238Z 10002KT 25/17 A3007 RMK A01 T02520168  RH  060%=      5-min Rain = 0
KCR2 141239Z 10003KT 25/17 A3007 RMK A01 T02510168  RH  060%=      5-min Rain = 0
KCR2 141240Z 08003KT 25/17 A3007 RMK A01 T02520168  RH  060%=      5-min Rain = 0
KCR2 141241Z 08004KT 25/17 A3007 RMK A01 T02520169  RH  060%=      5-min Rain = 0
KCR2 141242Z 07004KT 25/17 A3007 RMK A01 T02530169  RH  060%=      5-min Rain = 0
KCR2 141243Z 06004KT 25/17 A3007 RMK A01 T02530169  RH  060%=      5-min Rain = 0
KCR2 141244Z 07004KT 25/17 A3008 RMK A01 T02540170  RH  060%=      5-min Rain = 0
KCR2 141245Z 06005KT 26/17 A3008 RMK A01 T02550171  RH  060%=      5-min Rain = 0
KCR2 141246Z 06005KT 26/17 A3008 RMK A01 T02550172  RH  060%=      5-min Rain = 0
KCR2 141247Z 06006KT 26/17 A3008 RMK A01 T02570174  RH  060%=      5-min Rain = 0
KCR2 141248Z 06006KT 26/18 A3008 RMK A01 T02580177  RH  061%=      5-min Rain = 0
KCR2 141249Z 06006KT 26/18 A3008 RMK A01 T02590179  RH  062%=      5-min Rain = 0
KCR2 141250Z 06007KT 26/18 A3008 RMK A01 T02590180  RH  062%=      5-min Rain = 0
KCR2 141251Z 06007KT 26/18 A3008 RMK A01 T02590180  RH  062%=      5-min Rain = 0
KCR2 141252Z 06007KT 26/18 A3008 RMK A01 T02590181  RH  062%=      5-min Rain = 0
KCR2 141253Z 06007KT 26/18 A3008 RMK A01 T02590181  RH  062%=      5-min Rain = 0
KCR2 141254Z 06007KT 26/18 A3008 RMK A01 T02590182  RH  062%=      5-min Rain = 0
KCR2 141255Z 06007KT 26/18 A3008 RMK A01 T02600182  RH  062%=      5-min Rain = 0
KCR2 141256Z 06007KT 26/18 A3008 RMK A01 T02600183  RH  062%=      5-min Rain = 0
KCR2 141257Z 06007KT 26/18 A3008 RMK A01 T02600183  RH  062%=      5-min Rain = 0
KCR2 141258Z 06007KT 26/18 A3008 RMK A01 T02600183  RH  062%=      5-min Rain = 0
KCR2 141259Z 05007KT 26/18 A3008 RMK A01 T02610184  RH  063%=      5-min Rain = 0
KCR2 141300Z 05007KT 26/18 A3009 RMK A01 T02610184  RH  063%=      5-min Rain = 0
KCR2 141301Z 05005KT 26/19 A3009 RMK A01 T02610185  RH  063%=      5-min Rain = 0
KCR2 141302Z 05006KT 26/19 A3009 RMK A01 T02620185  RH  063%=      5-min Rain = 0
KCR2 141303Z 05005KT 26/19 A3009 RMK A01 T02630186  RH  063%=      5-min Rain = 0
KCR2 141304Z 05006KT 26/19 A3009 RMK A01 T02630186  RH  062%=      5-min Rain = 0
KCR2 141305Z 06006KT 26/19 A3009 RMK A01 T02640186  RH  062%=      5-min Rain = 0
KCR2 141306Z 06006KT 26/19 A3009 RMK A01 T02640186  RH  062%=      5-min Rain = 0
KCR2 141307Z 07007KT 26/19 A3009 RMK A01 T02640186  RH  062%=      5-min Rain = 0
KCR2 141308Z 07008KT 26/19 A3009 RMK A01 T02640187  RH  063%=      5-min Rain = 0
KCR2 141309Z 07007KT 26/19 A3009 RMK A01 T02640188  RH  063%=      5-min Rain = 0
KCR2 141310Z 07006KT 27/19 A3009 RMK A01 T02650189  RH  063%=      5-min Rain = 0
KCR2 141311Z 07007KT 27/19 A3009 RMK A01 T02660190  RH  063%=      5-min Rain = 0
KCR2 141312Z 06008KT 27/19 A3009 RMK A01 T02660191  RH  063%=      5-min Rain = 0
KCR2 141313Z 06008KT 27/19 A3008 RMK A01 T02670192  RH  064%=      5-min Rain = 0
KCR2 141314Z 07009KT 27/19 A3009 RMK A01 T02670193  RH  064%=      5-min Rain = 0
KCR2 141315Z 07009KT 27/19 A3009 RMK A01 T02680194  RH  064%=      5-min Rain = 0
KCR2 141316Z 07009KT 27/20 A3009 RMK A01 T02680196  RH  065%=      5-min Rain = 0
KCR2 141317Z 07007KT 27/20 A3009 RMK A01 T02680196  RH  065%=      5-min Rain = 0
KCR2 141318Z 07007KT 27/20 A3009 RMK A01 T02680196  RH  065%=      5-min Rain = 0
KCR2 141319Z 07008KT 27/20 A3009 RMK A01 T02680196  RH  065%=      5-min Rain = 0
KCR2 141320Z 07007KT 27/20 A3009 RMK A01 T02680196  RH  065%=      5-min Rain = 0
KCR2 141321Z 07009KT 27/20 A3009 RMK A01 T02680197  RH  065%=      5-min Rain = 0
KCR2 141322Z 07009KT 27/20 A3009 RMK A01 T02680197  RH  065%=      5-min Rain = 0
KCR2 141323Z 07009KT 27/20 A3009 RMK A01 T02690197  RH  065%=      5-min Rain = 0
KCR2 141324Z 07008KT 27/20 A3009 RMK A01 T02680197  RH  065%=      5-min Rain = 0
KCR2 141325Z 07009KT 27/20 A3009 RMK A01 T02690197  RH  065%=      5-min Rain = 0
KCR2 141326Z 08009KT 27/20 A3009 RMK A01 T02700197  RH  065%=      5-min Rain = 0
KCR2 141327Z 07007KT 27/20 A3009 RMK A01 T02710198  RH  064%=      5-min Rain = 0
KCR2 141328Z 06009KT 27/20 A3009 RMK A01 T02720198  RH  064%=      5-min Rain = 0
KCR2 141329Z 06009KT 27/20 A3009 RMK A01 T02720198  RH  064%=      5-min Rain = 0
KCR2 141330Z 06008KT 27/20 A3009 RMK A01 T02710198  RH  064%=      5-min Rain = 0
KCR2 141331Z 07008KT 27/20 A3009 RMK A01 T02710198  RH  064%=      5-min Rain = 0
KCR2 141332Z 06010KT 27/20 A301 RMK A01 T02710198  RH  064%=      5-min Rain = 0
KCR2 141333Z 07010KT 27/20 A301 RMK A01 T02720199  RH  064%=      5-min Rain = 0
KCR2 141334Z 07008KT 27/20 A301 RMK A01 T02720199  RH  064%=      5-min Rain = 0
KCR2 141335Z 07006KT 27/20 A301 RMK A01 T02720199  RH  064%=      5-min Rain = 0
KCR2 141336Z 07008KT 27/20 A301 RMK A01 T02720199  RH  064%=      5-min Rain = 0
KCR2 141337Z 07008KT 27/20 A301 RMK A01 T02730199  RH  064%=      5-min Rain = 0
KCR2 141338Z 07010KT 27/20 A301 RMK A01 T02730200  RH  064%=      5-min Rain = 0
KCR2 141339Z 07010KT 27/20 A301 RMK A01 T02740201  RH  064%=      5-min Rain = 0
KCR2 141340Z 07009KT 27/20 A301 RMK A01 T02740201  RH  064%=      5-min Rain = 0
KCR2 141341Z 07009KT 27/20 A301 RMK A01 T02740201  RH  064%=      5-min Rain = 0
KCR2 141342Z 07009KT 27/20 A301 RMK A01 T02740201  RH  064%=      5-min Rain = 0
KCR2 141343Z 07008KT 28/20 A301 RMK A01 T02750202  RH  064%=      5-min Rain = 0
KCR2 141344Z 07010KT 28/20 A301 RMK A01 T02760202  RH  064%=      5-min Rain = 0
KCR2 141345Z 07010KT 28/20 A301 RMK A01 T02770201  RH  064%=      5-min Rain = 0
KCR2 141346Z 07009KT 28/20 A301 RMK A01 T02780202  RH  063%=      5-min Rain = 0
KCR2 141347Z 08010KT 28/20 A301 RMK A01 T02790202  RH  063%=      5-min Rain = 0
KCR2 141348Z 07011KT 28/20 A301 RMK A01 T02800202  RH  063%=      5-min Rain = 0
KCR2 141349Z 07010KT 28/20 A301 RMK A01 T02810202  RH  062%=      5-min Rain = 0
KCR2 141350Z 06011KT 28/20 A301 RMK A01 T02810203  RH  062%=      5-min Rain = 0
KCR2 141351Z 07010KT 28/20 A301 RMK A01 T02810202  RH  062%=      5-min Rain = 0
KCR2 141352Z 07009KT 28/20 A301 RMK A01 T02810203  RH  062%=      5-min Rain = 0
KCR2 141353Z 07010KT 28/20 A301 RMK A01 T02830203  RH  062%=      5-min Rain = 0
KCR2 141354Z 07008KT 28/20 A301 RMK A01 T02840203  RH  062%=      5-min Rain = 0
KCR2 141355Z 07012KT 29/20 A301 RMK A01 T02850203  RH  061%=      5-min Rain = 0
KCR2 141356Z 06012KT 28/20 A3011 RMK A01 T02840202  RH  061%=      5-min Rain = 0
KCR2 141357Z 07010KT 28/20 A3011 RMK A01 T02830202  RH  062%=      5-min Rain = 0
KCR2 141358Z 05011KT 28/20 A3011 RMK A01 T02820202  RH  062%=      5-min Rain = 0
KCR2 141359Z 05012KT 28/20 A3011 RMK A01 T02820202  RH  062%=      5-min Rain = 0
KCR2 141400Z 05012KT 28/20 A3011 RMK A01 T02820202  RH  062%=      5-min Rain = 0
KCR2 141401Z 06009KT 28/20 A3011 RMK A01 T02830203  RH  062%=      5-min Rain = 0
KCR2 141402Z 06009KT 28/20 A3011 RMK A01 T02830203  RH  062%=      5-min Rain = 0
KCR2 141403Z 05010KT 28/20 A3011 RMK A01 T02840203  RH  062%=      5-min Rain = 0
KCR2 141404Z 05010KT 29/20 A3011 RMK A01 T02850203  RH  061%=      5-min Rain = 0
KCR2 141405Z 06011KT 29/20 A3011 RMK A01 T02850203  RH  061%=      5-min Rain = 0
KCR2 141406Z 06008KT 29/20 A3011 RMK A01 T02850203  RH  061%=      5-min Rain = 0
KCR2 141407Z 07009KT 29/20 A3011 RMK A01 T02860203  RH  061%=      5-min Rain = 0
KCR2 141408Z 08012KT 29/20 A3011 RMK A01 T02860204  RH  061%=      5-min Rain = 0
KCR2 141409Z 07010KT 29/20 A3011 RMK A01 T02860203  RH  061%=      5-min Rain = 0
KCR2 141410Z 06010KT 28/20 A3011 RMK A01 T02840204  RH  062%=      5-min Rain = 0
KCR2 141411Z 06009KT 28/20 A3011 RMK A01 T02820203  RH  062%=      5-min Rain = 0
KCR2 141412Z 06009KT 28/20 A3011 RMK A01 T02800203  RH  063%=      5-min Rain = 0
KCR2 141413Z 06009KT 28/20 A3011 RMK A01 T02790203  RH  063%=      5-min Rain = 0
KCR2 141414Z 06009KT 28/20 A3011 RMK A01 T02790203  RH  063%=      5-min Rain = 0
KCR2 141415Z 07010KT 28/20 A3011 RMK A01 T02800203  RH  063%=      5-min Rain = 0
KCR2 141416Z 07012KT 28/20 A3011 RMK A01 T02820203  RH  062%=      5-min Rain = 0
KCR2 141417Z 06011KT 28/20 A3011 RMK A01 T02810203  RH  063%=      5-min Rain = 0
KCR2 141418Z 06009KT 28/20 A3011 RMK A01 T02810203  RH  063%=      5-min Rain = 0
KCR2 141419Z 06011KT 28/20 A3011 RMK A01 T02800203  RH  063%=      5-min Rain = 0
KCR2 141420Z 07010KT 28/20 A3011 RMK A01 T02800203  RH  063%=      5-min Rain = 0
KCR2 141421Z 07008KT 28/20 A3011 RMK A01 T02800204  RH  063%=      5-min Rain = 0
KCR2 141422Z 07008KT 28/20 A3011 RMK A01 T02810203  RH  063%=      5-min Rain = 0
KCR2 141423Z 07008KT 28/20 A3011 RMK A01 T02820203  RH  062%=      5-min Rain = 0
KCR2 141424Z 08008KT 28/20 A3012 RMK A01 T02820203  RH  062%=      5-min Rain = 0
KCR2 141425Z 08009KT 28/20 A3012 RMK A01 T02830203  RH  062%=      5-min Rain = 0
KCR2 141426Z 07011KT 28/20 A3012 RMK A01 T02840204  RH  062%=      5-min Rain = 0
KCR2 141427Z 05009KT 29/20 A3012 RMK A01 T02850204  RH  062%=      5-min Rain = 0
KCR2 141428Z 06008KT 29/20 A3012 RMK A01 T02850204  RH  062%=      5-min Rain = 0
KCR2 141429Z 06010KT 29/20 A3012 RMK A01 T02850204  RH  061%=      5-min Rain = 0
KCR2 141430Z 06009KT 29/20 A3012 RMK A01 T02880204  RH  060%=      5-min Rain = 0
KCR2 141431Z 08008KT 29/20 A3012 RMK A01 T02900204  RH  060%=      5-min Rain = 0
KCR2 141432Z 07009KT 29/20 A3012 RMK A01 T02920204  RH  059%=      5-min Rain = 0
KCR2 141433Z 07010KT 29/20 A3012 RMK A01 T02930204  RH  059%=      5-min Rain = 0
KCR2 141434Z 07009KT 29/20 A3012 RMK A01 T02920204  RH  059%=      5-min Rain = 0
KCR2 141435Z 06009KT 29/21 A3012 RMK A01 T02910205  RH  060%=      5-min Rain = 0
KCR2 141436Z 05010KT 29/20 A3012 RMK A01 T02910204  RH  059%=      5-min Rain = 0
KCR2 141437Z 05010KT 29/20 A3012 RMK A01 T02900204  RH  060%=      5-min Rain = 0
KCR2 141438Z 05009KT 29/20 A3012 RMK A01 T02900204  RH  060%=      5-min Rain = 0
KCR2 141439Z 07010KT 29/20 A3012 RMK A01 T02880203  RH  060%=      5-min Rain = 0
KCR2 141440Z 08011KT 29/20 A3012 RMK A01 T02870203  RH  061%=      5-min Rain = 0
KCR2 141441Z 06009KT 29/20 A3012 RMK A01 T02860203  RH  061%=      5-min Rain = 0
KCR2 141442Z 05009KT 29/20 A3012 RMK A01 T02850204  RH  061%=      5-min Rain = 0
KCR2 141443Z 06008KT 29/20 A3012 RMK A01 T02860204  RH  061%=      5-min Rain = 0
KCR2 141444Z 06007KT 29/20 A3012 RMK A01 T02880204  RH  061%=      5-min Rain = 0
KCR2 141445Z 05007KT 29/20 A3012 RMK A01 T02880204  RH  060%=      5-min Rain = 0
KCR2 141446Z 04009KT 29/20 A3012 RMK A01 T02890204  RH  060%=      5-min Rain = 0
KCR2 141447Z 06010KT 29/20 A3012 RMK A01 T02890204  RH  060%=      5-min Rain = 0
KCR2 141448Z 07008KT 29/20 A3012 RMK A01 T02880204  RH  060%=      5-min Rain = 0
KCR2 141449Z 08010KT 29/20 A3012 RMK A01 T02900203  RH  060%=      5-min Rain = 0
KCR2 141450Z 07010KT 29/20 A3012 RMK A01 T02900204  RH  060%=      5-min Rain = 0
KCR2 141451Z 05009KT 29/20 A3012 RMK A01 T02890204  RH  060%=      5-min Rain = 0
KCR2 141452Z 08008KT 29/20 A3012 RMK A01 T02890203  RH  060%=      5-min Rain = 0
KCR2 141453Z 09009KT 29/20 A3012 RMK A01 T02910204  RH  059%=      5-min Rain = 0
KCR2 141454Z 09007KT 29/20 A3013 RMK A01 T02920203  RH  059%=      5-min Rain = 0
KCR2 141455Z 06009KT 29/20 A3013 RMK A01 T02910204  RH  059%=      5-min Rain = 0
KCR2 141456Z 07009KT 29/20 A3013 RMK A01 T02910203  RH  059%=      5-min Rain = 0
KCR2 141457Z 06010KT 29/20 A3013 RMK A01 T02910203  RH  059%=      5-min Rain = 0
KCR2 141458Z 05008KT 29/20 A3013 RMK A01 T02890203  RH  060%=      5-min Rain = 0
KCR2 141459Z 06007KT 29/20 A3013 RMK A01 T02900204  RH  060%=      5-min Rain = 0
KCR2 141500Z 08010KT 29/20 A3013 RMK A01 T02910203  RH  059%=      5-min Rain = 0
KCR2 141501Z 06011KT 29/20 A3013 RMK A01 T02910203  RH  059%=      5-min Rain = 0
KCR2 141502Z 05010KT 29/20 A3013 RMK A01 T02890203  RH  060%=      5-min Rain = 0
KCR2 141503Z 04008KT 29/20 A3013 RMK A01 T02880203  RH  060%=      5-min Rain = 0
KCR2 141504Z 05010KT 29/20 A3013 RMK A01 T02880203  RH  060%=      5-min Rain = 0
KCR2 141505Z 05011KT 29/20 A3013 RMK A01 T02880203  RH  060%=      5-min Rain = 0
KCR2 141506Z 05012KT 29/20 A3013 RMK A01 T02900203  RH  059%=      5-min Rain = 0
KCR2 141507Z 06010KT 29/20 A3013 RMK A01 T02900203  RH  059%=      5-min Rain = 0
KCR2 141508Z 06010KT 29/20 A3013 RMK A01 T02900202  RH  059%=      5-min Rain = 0
KCR2 141509Z 06009G14KT 29/20 A3013 RMK A01 T02900203  RH  059%=      5-min Rain = 0
KCR2 141510Z 07012KT 29/20 A3013 RMK A01 T02890202  RH  059%=      5-min Rain = 0
KCR2 141511Z 06011KT 29/20 A3013 RMK A01 T02890203  RH  059%=      5-min Rain = 0
KCR2 141512Z 06010KT 29/20 A3013 RMK A01 T02900203  RH  059%=      5-min Rain = 0
KCR2 141513Z 06011KT 29/20 A3013 RMK A01 T02900203  RH  059%=      5-min Rain = 0
KCR2 141514Z 06009KT 29/20 A3013 RMK A01 T02910202  RH  059%=      5-min Rain = 0
KCR2 141515Z 06010KT 29/20 A3013 RMK A01 T02910203  RH  059%=      5-min Rain = 0
KCR2 141516Z 06010KT 29/20 A3013 RMK A01 T02910202  RH  059%=      5-min Rain = 0
KCR2 141517Z 05009KT 29/20 A3013 RMK A01 T02900203  RH  059%=      5-min Rain = 0
KCR2 141518Z 04011KT 29/20 A3013 RMK A01 T02890204  RH  060%=      5-min Rain = 0
KCR2 141519Z 04011KT 29/20 A3013 RMK A01 T02890203  RH  060%=      5-min Rain = 0
KCR2 141520Z 05010KT 29/20 A3013 RMK A01 T02890203  RH  060%=      5-min Rain = 0
KCR2 141521Z 05008KT 29/20 A3013 RMK A01 T02890204  RH  060%=      5-min Rain = 0
KCR2 141522Z 05013KT 29/20 A3013 RMK A01 T02890203  RH  060%=      5-min Rain = 0
KCR2 141523Z 05013KT 29/20 A3013 RMK A01 T02900203  RH  060%=      5-min Rain = 0
KCR2 141524Z 06011KT 29/20 A3013 RMK A01 T02890203  RH  060%=      5-min Rain = 0
KCR2 141525Z 05013KT 29/20 A3013 RMK A01 T02880203  RH  060%=      5-min Rain = 0
KCR2 141526Z 05013KT 29/20 A3013 RMK A01 T02880203  RH  060%=      5-min Rain = 0
KCR2 141527Z 05013KT 29/20 A3013 RMK A01 T02880203  RH  060%=      5-min Rain = 0
KCR2 141528Z 04013KT 29/20 A3013 RMK A01 T02880202  RH  060%=      5-min Rain = 0
KCR2 141529Z 06014KT 29/20 A3014 RMK A01 T02870202  RH  060%=      5-min Rain = 0
KCR2 141530Z 05012KT 29/20 A3014 RMK A01 T02870202  RH  060%=      5-min Rain = 0
KCR2 141531Z 05012KT 29/20 A3014 RMK A01 T02870202  RH  060%=      5-min Rain = 0
KCR2 141532Z 06011KT 29/20 A3014 RMK A01 T02860202  RH  060%=      5-min Rain = 0
KCR2 141533Z 06012KT 29/20 A3014 RMK A01 T02860202  RH  061%=      5-min Rain = 0
KCR2 141534Z 05012KT 29/20 A3014 RMK A01 T02860202  RH  060%=      5-min Rain = 0
KCR2 141535Z 06011KT 29/20 A3014 RMK A01 T02860202  RH  060%=      5-min Rain = 0
KCR2 141536Z 06012KT 29/20 A3014 RMK A01 T02860202  RH  060%=      5-min Rain = 0
KCR2 141537Z 05009KT 29/20 A3014 RMK A01 T02870203  RH  060%=      5-min Rain = 0
KCR2 141538Z 05010KT 29/20 A3014 RMK A01 T02870203  RH  061%=      5-min Rain = 0
KCR2 141539Z 04010KT 29/20 A3014 RMK A01 T02870204  RH  061%=      5-min Rain = 0
KCR2 141540Z 04013KT 29/20 A3014 RMK A01 T02870203  RH  060%=      5-min Rain = 0
KCR2 141541Z 04011KT 29/20 A3014 RMK A01 T02860203  RH  061%=      5-min Rain = 0
KCR2 141542Z 04012KT 29/20 A3014 RMK A01 T02850203  RH  061%=      5-min Rain = 0
KCR2 141543Z 05011KT 29/20 A3015 RMK A01 T02850203  RH  061%=      5-min Rain = 0
KCR2 141544Z 06013KT 29/20 A3015 RMK A01 T02850202  RH  061%=      5-min Rain = 0
KCR2 141545Z 06010KT 28/20 A3015 RMK A01 T02840202  RH  061%=      5-min Rain = 0
KCR2 141546Z 05011KT 28/20 A3015 RMK A01 T02840202  RH  061%=      5-min Rain = 0
KCR2 141547Z 05009G14KT 28/20 A3015 RMK A01 T02840203  RH  061%=      5-min Rain = 0
KCR2 141548Z 05012KT 29/20 A3015 RMK A01 T02850203  RH  061%=      5-min Rain = 0
KCR2 141549Z 06009KT 29/20 A3015 RMK A01 T02850203  RH  061%=      5-min Rain = 0
KCR2 141550Z 05010KT 29/20 A3015 RMK A01 T02850203  RH  061%=      5-min Rain = 0
KCR2 141551Z 04012KT 29/20 A3015 RMK A01 T02860203  RH  061%=      5-min Rain = 0
KCR2 141552Z 04013KT 29/20 A3015 RMK A01 T02850202  RH  061%=      5-min Rain = 0
KCR2 141553Z 05010KT 29/20 A3015 RMK A01 T02850202  RH  061%=      5-min Rain = 0
KCR2 141554Z 05013KT 28/20 A3015 RMK A01 T02840202  RH  061%=      5-min Rain = 0
KCR2 141555Z 05011KT 29/20 A3015 RMK A01 T02850202  RH  061%=      5-min Rain = 0
KCR2 141556Z 05013KT 28/20 A3015 RMK A01 T02840202  RH  061%=      5-min Rain = 0
KCR2 141557Z 05013KT 28/20 A3015 RMK A01 T02830201  RH  061%=      5-min Rain = 0
KCR2 141558Z 04010G15KT 28/20 A3015 RMK A01 T02820201  RH  062%=      5-min Rain = 0
KCR2 141559Z 06012KT 28/20 A3015 RMK A01 T02820201  RH  061%=      5-min Rain = 0
KCR2 141600Z 05012KT 28/20 A3016 RMK A01 T02820200  RH  061%=      5-min Rain = 0
KCR2 141601Z 05012KT 28/20 A3016 RMK A01 T02830201  RH  061%=      5-min Rain = 0
KCR2 141602Z 05014KT 28/20 A3016 RMK A01 T02840200  RH  060%=      5-min Rain = 0
KCR2 141603Z 05011KT 28/20 A3016 RMK A01 T02840201  RH  061%=      5-min Rain = 0
KCR2 141604Z 06012KT 28/20 A3016 RMK A01 T02840201  RH  061%=      5-min Rain = 0
KCR2 141605Z 05010KT 29/20 A3016 RMK A01 T02850201  RH  061%=      5-min Rain = 0
KCR2 141606Z 06011KT 29/20 A3016 RMK A01 T02850201  RH  060%=      5-min Rain = 0
KCR2 141607Z 05012KT 29/20 A3016 RMK A01 T02850201  RH  060%=      5-min Rain = 0
KCR2 141608Z 06013KT 29/20 A3016 RMK A01 T02850201  RH  060%=      5-min Rain = 0
KCR2 141609Z 06014KT 29/20 A3016 RMK A01 T02850202  RH  061%=      5-min Rain = 0
KCR2 141610Z 05012KT 28/20 A3016 RMK A01 T02840201  RH  061%=      5-min Rain = 0
KCR2 141611Z 06012KT 28/20 A3016 RMK A01 T02840201  RH  061%=      5-min Rain = 0
KCR2 141612Z 05012KT 29/20 A3016 RMK A01 T02850201  RH  061%=      5-min Rain = 0
KCR2 141613Z 06013KT 29/20 A3016 RMK A01 T02860201  RH  060%=      5-min Rain = 0
KCR2 141614Z 05010KT 29/20 A3016 RMK A01 T02860201  RH  060%=      5-min Rain = 0
KCR2 141615Z 06012KT 29/20 A3016 RMK A01 T02870201  RH  060%=      5-min Rain = 0
KCR2 141616Z 05010KT 29/20 A3016 RMK A01 T02870202  RH  060%=      5-min Rain = 0
KCR2 141617Z 05011KT 29/20 A3016 RMK A01 T02870203  RH  060%=      5-min Rain = 0
KCR2 141618Z 05009KT 29/20 A3016 RMK A01 T02880203  RH  060%=      5-min Rain = 0
KCR2 141619Z 04009KT 29/20 A3016 RMK A01 T02890203  RH  060%=      5-min Rain = 0
KCR2 141620Z 06009KT 29/20 A3016 RMK A01 T02900203  RH  059%=      5-min Rain = 0
KCR2 141621Z 06011KT 29/20 A3016 RMK A01 T02900202  RH  059%=      5-min Rain = 0
KCR2 141622Z 07010KT 29/20 A3016 RMK A01 T02910202  RH  059%=      5-min Rain = 0
KCR2 141623Z 06013KT 29/20 A3016 RMK A01 T02900201  RH  059%=      5-min Rain = 0
KCR2 141624Z 06012KT 29/20 A3016 RMK A01 T02900202  RH  059%=      5-min Rain = 0
KCR2 141625Z 04013KT 29/20 A3016 RMK A01 T02890202  RH  059%=      5-min Rain = 0
KCR2 141626Z 05013KT 29/20 A3016 RMK A01 T02890201  RH  059%=      5-min Rain = 0
KCR2 141627Z 05010KT 29/20 A3016 RMK A01 T02880200  RH  059%=      5-min Rain = 0
KCR2 141628Z 05013KT 29/20 A3016 RMK A01 T02880200  RH  059%=      5-min Rain = 0
KCR2 141629Z 05012KT 29/20 A3016 RMK A01 T02880199  RH  059%=      5-min Rain = 0
KCR2 141630Z 05012KT 29/20 A3016 RMK A01 T02890199  RH  058%=      5-min Rain = 0
KCR2 141631Z 07013KT 29/20 A3016 RMK A01 T02900199  RH  058%=      5-min Rain = 0
KCR2 141632Z 06011KT 29/20 A3016 RMK A01 T02910199  RH  058%=      5-min Rain = 0
KCR2 141633Z 06010KT 29/20 A3016 RMK A01 T02910200  RH  058%=      5-min Rain = 0
KCR2 141634Z 06014KT 29/20 A3016 RMK A01 T02920201  RH  058%=      5-min Rain = 0
KCR2 141635Z 06011KT 29/20 A3016 RMK A01 T02920200  RH  058%=      5-min Rain = 0
KCR2 141636Z 05011KT 29/20 A3016 RMK A01 T02920200  RH  058%=      5-min Rain = 0
KCR2 141637Z 05010KT 29/20 A3016 RMK A01 T02920199  RH  057%=      5-min Rain = 0
KCR2 141638Z 06011KT 29/20 A3016 RMK A01 T02930200  RH  057%=      5-min Rain = 0
KCR2 141639Z 06012KT 29/20 A3016 RMK A01 T02940198  RH  056%=      5-min Rain = 0
KCR2 141640Z 06013KT 30/20 A3016 RMK A01 T02960199  RH  056%=      5-min Rain = 0
KCR2 141641Z 05010KT 30/20 A3016 RMK A01 T02970200  RH  056%=      5-min Rain = 0
KCR2 141642Z 06010KT 30/20 A3016 RMK A01 T02970200  RH  056%=      5-min Rain = 0
KCR2 141643Z 07012KT 30/20 A3016 RMK A01 T02970199  RH  056%=      5-min Rain = 0
KCR2 141644Z 07012KT 30/20 A3016 RMK A01 T02970199  RH  056%=      5-min Rain = 0
KCR2 141645Z 07012KT 30/20 A3016 RMK A01 T02970199  RH  056%=      5-min Rain = 0
KCR2 141646Z 05011KT 30/20 A3016 RMK A01 T02970200  RH  056%=      5-min Rain = 0
KCR2 141647Z 05011KT 30/20 A3016 RMK A01 T02970200  RH  056%=      5-min Rain = 0
KCR2 141648Z 06012G17KT 30/20 A3016 RMK A01 T02970200  RH  056%=      5-min Rain = 0
KCR2 141649Z 06014KT 30/20 A3016 RMK A01 T02990199  RH  055%=      5-min Rain = 0
KCR2 141650Z 05014KT 30/20 A3016 RMK A01 T02990199  RH  055%=      5-min Rain = 0
KCR2 141651Z 05012KT 30/20 A3016 RMK A01 T02990199  RH  055%=      5-min Rain = 0
KCR2 141652Z 04012KT 30/20 A3016 RMK A01 T02990199  RH  055%=      5-min Rain = 0
KCR2 141653Z 04011KT 30/20 A3016 RMK A01 T03000200  RH  055%=      5-min Rain = 0
KCR2 141654Z 04012KT 30/20 A3016 RMK A01 T02990201  RH  056%=      5-min Rain = 0
KCR2 141655Z 04011KT 30/20 A3016 RMK A01 T02980201  RH  056%=      5-min Rain = 0
KCR2 141656Z 04011KT 30/20 A3016 RMK A01 T02980201  RH  056%=      5-min Rain = 0
KCR2 141657Z 03011KT 30/20 A3016 RMK A01 T03000202  RH  056%=      5-min Rain = 0
KCR2 141658Z 04009KT 30/20 A3016 RMK A01 T03020202  RH  055%=      5-min Rain = 0
KCR2 141659Z 05011KT 30/20 A3016 RMK A01 T03030202  RH  055%=      5-min Rain = 0
KCR2 141700Z 04013KT 30/20 A3016 RMK A01 T03030201  RH  054%=      5-min Rain = 0
KCR2 141701Z 04012KT 30/20 A3016 RMK A01 T03030199  RH  054%=      5-min Rain = 0
KCR2 141702Z 05012KT 30/20 A3016 RMK A01 T03020200  RH  054%=      5-min Rain = 0
KCR2 141703Z 05012KT 30/20 A3016 RMK A01 T03010200  RH  055%=      5-min Rain = 0
KCR2 141704Z 05014KT 30/20 A3016 RMK A01 T03000200  RH  055%=      5-min Rain = 0
KCR2 141705Z 05012KT 30/20 A3016 RMK A01 T03010199  RH  054%=      5-min Rain = 0
KCR2 141706Z 04011KT 30/20 A3016 RMK A01 T03020199  RH  054%=      5-min Rain = 0
KCR2 141707Z 05012KT 30/20 A3016 RMK A01 T03030200  RH  054%=      5-min Rain = 0
KCR2 141708Z 06013KT 31/20 A3015 RMK A01 T03050199  RH  053%=      5-min Rain = 0
KCR2 141709Z 05012KT 31/20 A3015 RMK A01 T03050199  RH  053%=      5-min Rain = 0
KCR2 141710Z 05013KT 31/20 A3015 RMK A01 T03050199  RH  053%=      5-min Rain = 0
KCR2 141711Z 07014KT 31/20 A3015 RMK A01 T03060199  RH  053%=      5-min Rain = 0
KCR2 141712Z 07014KT 31/20 A3015 RMK A01 T03070198  RH  052%=      5-min Rain = 0
KCR2 141713Z 06010KT 31/20 A3015 RMK A01 T03070198  RH  052%=      5-min Rain = 0
KCR2 141714Z 05013KT 31/20 A3015 RMK A01 T03080199  RH  052%=      5-min Rain = 0
KCR2 141715Z 05012KT 31/20 A3015 RMK A01 T03110198  RH  051%=      5-min Rain = 0
KCR2 141716Z 05010KT 31/20 A3015 RMK A01 T03110198  RH  051%=      5-min Rain = 0
KCR2 141717Z 04012KT 31/20 A3015 RMK A01 T03090198  RH  052%=      5-min Rain = 0
KCR2 141718Z 03014KT 31/20 A3015 RMK A01 T03080198  RH  052%=      5-min Rain = 0
KCR2 141719Z 03011KT 31/20 A3015 RMK A01 T03070197  RH  052%=      5-min Rain = 0
KCR2 141720Z 05013KT 31/20 A3015 RMK A01 T03080196  RH  051%=      5-min Rain = 0
KCR2 141721Z 05010G15KT 31/20 A3015 RMK A01 T03090196  RH  051%=      5-min Rain = 0
KCR2 141722Z 04010KT 31/20 A3015 RMK A01 T03090198  RH  051%=      5-min Rain = 0
KCR2 141723Z 05010KT 31/20 A3015 RMK A01 T03090197  RH  051%=      5-min Rain = 0
KCR2 141724Z 04010KT 31/20 A3015 RMK A01 T03100198  RH  051%=      5-min Rain = 0
KCR2 141725Z 07011KT 31/20 A3015 RMK A01 T03120197  RH  051%=      5-min Rain = 0
KCR2 141726Z 05012KT 31/20 A3015 RMK A01 T03140199  RH  051%=      5-min Rain = 0
KCR2 141727Z 04014KT 32/20 A3015 RMK A01 T03150201  RH  051%=      5-min Rain = 0
KCR2 141728Z 04010KT 32/20 A3014 RMK A01 T03150201  RH  051%=      5-min Rain = 0
KCR2 141729Z 03010KT 31/20 A3014 RMK A01 T03140201  RH  051%=      5-min Rain = 0
KCR2 141730Z 02011G16KT 31/20 A3014 RMK A01 T03140200  RH  051%=      5-min Rain = 0
KCR2 141731Z 02011KT 31/20 A3014 RMK A01 T03130200  RH  051%=      5-min Rain = 0
KCR2 141732Z 05015KT 32/20 A3014 RMK A01 T03150199  RH  050%=      5-min Rain = 0
KCR2 141733Z 04012KT 32/20 A3014 RMK A01 T03160199  RH  050%=      5-min Rain = 0
KCR2 141734Z 05013KT 32/20 A3014 RMK A01 T03160200  RH  050%=      5-min Rain = 0
KCR2 141735Z 04014KT 32/20 A3014 RMK A01 T03170200  RH  050%=      5-min Rain = 0
KCR2 141736Z 04013KT 32/20 A3014 RMK A01 T03200199  RH  049%=      5-min Rain = 0
KCR2 141737Z 05013KT 32/20 A3014 RMK A01 T03170201  RH  050%=      5-min Rain = 0
KCR2 141738Z 07013KT 32/20 A3014 RMK A01 T03190200  RH  049%=      5-min Rain = 0
KCR2 141739Z 07012KT 32/20 A3014 RMK A01 T03230201  RH  048%=      5-min Rain = 0
KCR2 141740Z 08011KT 32/20 A3014 RMK A01 T03230199  RH  048%=      5-min Rain = 0
KCR2 141741Z 07009KT 32/20 A3014 RMK A01 T03200200  RH  049%=      5-min Rain = 0
KCR2 141742Z 06011KT 32/20 A3014 RMK A01 T03210200  RH  049%=      5-min Rain = 0
KCR2 141743Z 06010KT 33/20 A3014 RMK A01 T03250199  RH  048%=      5-min Rain = 0
KCR2 141744Z 06010KT 32/20 A3014 RMK A01 T03230200  RH  048%=      5-min Rain = 0
KCR2 141745Z 07012KT 32/20 A3014 RMK A01 T03210200  RH  049%=      5-min Rain = 0
KCR2 141746Z 05014KT 32/20 A3014 RMK A01 T03240200  RH  048%=      5-min Rain = 0
KCR2 141747Z 05012KT 32/20 A3014 RMK A01 T03240200  RH  048%=      5-min Rain = 0
KCR2 141748Z 05009KT 32/20 A3014 RMK A01 T03210199  RH  049%=      5-min Rain = 0
KCR2 141749Z 06011G16KT 32/20 A3014 RMK A01 T03190199  RH  049%=      5-min Rain = 0
KCR2 141750Z 05012G17KT 32/20 A3014 RMK A01 T03220198  RH  048%=      5-min Rain = 0
KCR2 141751Z 04009KT 32/20 A3014 RMK A01 T03210199  RH  048%=      5-min Rain = 0
KCR2 141752Z 05012KT 32/20 A3014 RMK A01 T03230197  RH  048%=      5-min Rain = 0
KCR2 141753Z 06011KT 32/20 A3014 RMK A01 T03210197  RH  048%=      5-min Rain = 0
KCR2 141754Z 07010KT 32/20 A3014 RMK A01 T03180197  RH  049%=      5-min Rain = 0
KCR2 141755Z 07009KT 32/20 A3014 RMK A01 T03160197  RH  050%=      5-min Rain = 0
KCR2 141756Z 07010KT 32/20 A3014 RMK A01 T03190197  RH  048%=      5-min Rain = 0
KCR2 141757Z 09014G19KT 32/20 A3014 RMK A01 T03200198  RH  048%=      5-min Rain = 0
KCR2 141758Z 07011G17KT 32/20 A3014 RMK A01 T03240198  RH  047%=      5-min Rain = 0
KCR2 141759Z 06009KT 33/20 A3014 RMK A01 T03280199  RH  047%=      5-min Rain = 0
KCR2 141800Z 06010G18KT 33/20 A3014 RMK A01 T03270201  RH  047%=      5-min Rain = 0
KCR2 141801Z 06013KT 33/20 A3014 RMK A01 T03260199  RH  047%=      5-min Rain = 0
KCR2 141802Z 04013KT 32/20 A3014 RMK A01 T03230199  RH  048%=      5-min Rain = 0
KCR2 141803Z 04013KT 32/20 A3014 RMK A01 T03230199  RH  048%=      5-min Rain = 0
KCR2 141804Z 05012KT 33/20 A3014 RMK A01 T03250199  RH  047%=      5-min Rain = 0
KCR2 141805Z 06014KT 33/20 A3014 RMK A01 T03290198  RH  046%=      5-min Rain = 0
KCR2 141806Z 07012KT 33/20 A3014 RMK A01 T03290196  RH  046%=      5-min Rain = 0
KCR2 141807Z 07012KT 33/20 A3014 RMK A01 T03260195  RH  046%=      5-min Rain = 0
KCR2 141808Z 06012KT 32/20 A3014 RMK A01 T03240197  RH  047%=      5-min Rain = 0
KCR2 141809Z 07011KT 32/20 A3014 RMK A01 T03240198  RH  047%=      5-min Rain = 0
KCR2 141810Z 07013KT 32/20 A3014 RMK A01 T03230198  RH  048%=      5-min Rain = 0
KCR2 141811Z 08009KT 32/20 A3014 RMK A01 T03220196  RH  047%=      5-min Rain = 0
KCR2 141812Z 08010KT 32/20 A3014 RMK A01 T03210196  RH  048%=      5-min Rain = 0
KCR2 141813Z 05010KT 32/20 A3014 RMK A01 T03210196  RH  048%=      5-min Rain = 0
KCR2 141814Z 03012KT 33/20 A3014 RMK A01 T03250197  RH  047%=      5-min Rain = 0
KCR2 141815Z 03011KT 33/20 A3014 RMK A01 T03310196  RH  045%=      5-min Rain = 0
KCR2 141816Z 04012KT 33/20 A3014 RMK A01 T03320196  RH  045%=      5-min Rain = 0
KCR2 141817Z 06012KT 33/19 A3014 RMK A01 T03310194  RH  044%=      5-min Rain = 0
KCR2 141818Z 07010KT 33/19 A3014 RMK A01 T03310192  RH  044%=      5-min Rain = 0
KCR2 141819Z 07007KT 33/20 A3014 RMK A01 T03260195  RH  046%=      5-min Rain = 0
KCR2 141820Z 07008KT 32/20 A3014 RMK A01 T03220196  RH  047%=      5-min Rain = 0
KCR2 141821Z 05014KT 32/20 A3014 RMK A01 T03230195  RH  047%=      5-min Rain = 0
KCR2 141822Z 05012KT 33/20 A3014 RMK A01 T03260195  RH  046%=      5-min Rain = 0
KCR2 141823Z 05011KT 33/20 A3014 RMK A01 T03260195  RH  046%=      5-min Rain = 0
KCR2 141824Z 05010KT 32/19 A3013 RMK A01 T03240194  RH  046%=      5-min Rain = 0
KCR2 141825Z 04006KT 32/19 A3013 RMK A01 T03230194  RH  046%=      5-min Rain = 0
KCR2 141826Z 05005KT 32/20 A3013 RMK A01 T03230195  RH  047%=      5-min Rain = 0
KCR2 141827Z 06004KT 33/20 A3013 RMK A01 T03260197  RH  046%=      5-min Rain = 0
KCR2 141828Z 09007KT 33/20 A3013 RMK A01 T03310197  RH  045%=      5-min Rain = 0
KCR2 141829Z 09008KT 33/20 A3013 RMK A01 T03320196  RH  045%=      5-min Rain = 0
KCR2 141830Z 09010KT 33/20 A3013 RMK A01 T03330196  RH  045%=      5-min Rain = 0
KCR2 141831Z 09011KT 33/20 A3013 RMK A01 T03330195  RH  044%=      5-min Rain = 0
KCR2 141832Z 10007KT 33/19 A3013 RMK A01 T03310194  RH  044%=      5-min Rain = 0
KCR2 141833Z 08009G14KT 33/19 A3013 RMK A01 T03270194  RH  046%=      5-min Rain = 0
KCR2 141834Z 09012KT 33/20 A3013 RMK A01 T03290196  RH  046%=      5-min Rain = 0
KCR2 141835Z 09008KT 33/20 A3013 RMK A01 T03310195  RH  045%=      5-min Rain = 0
KCR2 141836Z 06006KT 33/20 A3013 RMK A01 T03310196  RH  045%=      5-min Rain = 0
KCR2 141837Z 06011KT 34/20 A3013 RMK A01 T03360196  RH  044%=      5-min Rain = 0
KCR2 141838Z 06012KT 34/20 A3013 RMK A01 T03390195  RH  043%=      5-min Rain = 0
KCR2 141839Z 07013KT 34/19 A3013 RMK A01 T03350194  RH  044%=      5-min Rain = 0
KCR2 141840Z 06009KT 33/19 A3013 RMK A01 T03340193  RH  044%=      5-min Rain = 0
KCR2 141841Z 06008KT 33/19 A3013 RMK A01 T03330193  RH  044%=      5-min Rain = 0
KCR2 141842Z 05009KT 33/19 A3013 RMK A01 T03310193  RH  044%=      5-min Rain = 0
KCR2 141843Z 03008KT 33/19 A3012 RMK A01 T03310192  RH  044%=      5-min Rain = 0
KCR2 141844Z 04008KT 33/19 A3012 RMK A01 T03290190  RH  044%=      5-min Rain = 0
KCR2 141845Z 06008KT 33/19 A3012 RMK A01 T03280190  RH  044%=      5-min Rain = 0
KCR2 141846Z 05008KT 33/19 A3012 RMK A01 T03290188  RH  044%=      5-min Rain = 0
KCR2 141847Z 04011KT 33/19 A3012 RMK A01 T03300191  RH  044%=      5-min Rain = 0
KCR2 141848Z 04010KT 33/19 A3012 RMK A01 T03320190  RH  043%=      5-min Rain = 0
KCR2 141849Z 03010KT 33/19 A3012 RMK A01 T03310191  RH  044%=      5-min Rain = 0
KCR2 141850Z 04009KT 33/19 A3012 RMK A01 T03320191  RH  043%=      5-min Rain = 0
KCR2 141851Z 08009KT 33/19 A3012 RMK A01 T03330191  RH  043%=      5-min Rain = 0
KCR2 141852Z 08010KT 33/19 A3012 RMK A01 T03340189  RH  042%=      5-min Rain = 0
KCR2 141853Z 08010KT 33/19 A3011 RMK A01 T03340191  RH  043%=      5-min Rain = 0
KCR2 141854Z 08010KT 34/19 A3011 RMK A01 T03350190  RH  042%=      5-min Rain = 0
KCR2 141855Z 09009KT 33/19 A3011 RMK A01 T03340189  RH  042%=      5-min Rain = 0
KCR2 141856Z 08007KT 33/19 A3011 RMK A01 T03320188  RH  043%=      5-min Rain = 0
KCR2 141857Z 08009KT 33/19 A3011 RMK A01 T03300188  RH  043%=      5-min Rain = 0
KCR2 141858Z 07004KT 33/19 A3011 RMK A01 T03300188  RH  043%=      5-min Rain = 0
KCR2 141859Z 10006KT 33/19 A301 RMK A01 T03290188  RH  043%=      5-min Rain = 0
KCR2 141900Z 12008KT 33/19 A301 RMK A01 T03340188  RH  042%=      5-min Rain = 0
KCR2 141901Z 14006KT 34/19 A301 RMK A01 T03350188  RH  042%=      5-min Rain = 0
KCR2 141902Z 10009KT 33/19 A301 RMK A01 T03340186  RH  042%=      5-min Rain = 0
KCR2 141903Z 10007KT 33/19 A301 RMK A01 T03330186  RH  042%=      5-min Rain = 0
KCR2 141904Z 11004KT 33/19 A301 RMK A01 T03310185  RH  042%=      5-min Rain = 0
KCR2 141905Z 09003KT 33/19 A301 RMK A01 T03300186  RH  042%=      5-min Rain = 0
KCR2 141906Z 05007KT 33/19 A301 RMK A01 T03330189  RH  043%=      5-min Rain = 0
KCR2 141907Z 06008KT 34/19 A301 RMK A01 T03350193  RH  043%=      5-min Rain = 0
KCR2 141908Z 06009KT 34/19 A301 RMK A01 T03360193  RH  043%=      5-min Rain = 0
KCR2 141909Z 06007KT 34/19 A301 RMK A01 T03360193  RH  043%=      5-min Rain = 0
KCR2 141910Z 09003KT 34/19 A301 RMK A01 T03350192  RH  043%=      5-min Rain = 0
KCR2 141911Z 04005KT 34/19 A301 RMK A01 T03360192  RH  043%=      5-min Rain = 0
KCR2 141912Z 04010KT 34/19 A301 RMK A01 T03360190  RH  042%=      5-min Rain = 0
KCR2 141913Z 05012KT 34/19 A301 RMK A01 T03370189  RH  042%=      5-min Rain = 0
KCR2 141914Z 07008KT 34/19 A301 RMK A01 T03380190  RH  042%=      5-min Rain = 0
KCR2 141915Z 06009KT 34/19 A301 RMK A01 T03380191  RH  042%=      5-min Rain = 0
KCR2 141916Z 07009KT 34/19 A301 RMK A01 T03390193  RH  042%=      5-min Rain = 0
KCR2 141917Z 06007KT 34/19 A301 RMK A01 T03380193  RH  043%=      5-min Rain = 0
KCR2 141918Z 07003KT 34/19 A301 RMK A01 T03380193  RH  043%=      5-min Rain = 0
KCR2 141919Z 06006KT 34/19 A3009 RMK A01 T03400192  RH  042%=      5-min Rain = 0
KCR2 141920Z 06013KT 34/19 A3009 RMK A01 T03420189  RH  041%=      5-min Rain = 0
KCR2 141921Z 07013KT 34/19 A3009 RMK A01 T03420186  RH  040%=      5-min Rain = 0
KCR2 141922Z 06012KT 34/19 A3009 RMK A01 T03430187  RH  040%=      5-min Rain = 0
KCR2 141923Z 04008KT 35/19 A3009 RMK A01 T03450186  RH  039%=      5-min Rain = 0
KCR2 141924Z 03007KT 35/19 A3009 RMK A01 T03460186  RH  039%=      5-min Rain = 0
KCR2 141925Z 02011KT 35/19 A3009 RMK A01 T03470186  RH  039%=      5-min Rain = 0
KCR2 141926Z 04012KT 35/19 A3009 RMK A01 T03460188  RH  039%=      5-min Rain = 0
KCR2 141927Z 04012KT 35/19 A3009 RMK A01 T03450188  RH  040%=      5-min Rain = 0
KCR2 141928Z 04010KT 34/19 A3008 RMK A01 T03410185  RH  040%=      5-min Rain = 0
KCR2 141929Z 04009KT 34/18 A3008 RMK A01 T03410183  RH  039%=      5-min Rain = 0
KCR2 141930Z 03007KT 34/18 A3008 RMK A01 T03420183  RH  039%=      5-min Rain = 0
KCR2 141931Z 04006KT 34/19 A3008 RMK A01 T03420186  RH  040%=      5-min Rain = 0
KCR2 141932Z 03009G16KT 35/19 A3008 RMK A01 T03450190  RH  040%=      5-min Rain = 0
KCR2 141933Z 03013KT 35/19 A3008 RMK A01 T03450191  RH  040%=      5-min Rain = 0
KCR2 141934Z 04011KT 35/19 A3008 RMK A01 T03460190  RH  040%=      5-min Rain = 0
KCR2 141935Z 04007KT 35/19 A3008 RMK A01 T03460189  RH  040%=      5-min Rain = 0
KCR2 141936Z 05010KT 35/19 A3008 RMK A01 T03450190  RH  040%=      5-min Rain = 0
KCR2 141937Z 05011G16KT 35/19 A3008 RMK A01 T03460192  RH  040%=      5-min Rain = 0
KCR2 141938Z 07014KT 35/19 A3008 RMK A01 T03510192  RH  039%=      5-min Rain = 0
KCR2 141939Z 08012KT 35/19 A3008 RMK A01 T03500190  RH  039%=      5-min Rain = 0
KCR2 141940Z 08009KT 35/19 A3008 RMK A01 T03460191  RH  040%=      5-min Rain = 0
KCR2 141941Z 07005KT 34/19 A3008 RMK A01 T03440191  RH  041%=      5-min Rain = 0
KCR2 141942Z 06008KT 34/19 A3007 RMK A01 T03440190  RH  040%=      5-min Rain = 0
KCR2 141943Z 06008KT 34/19 A3007 RMK A01 T03440190  RH  040%=      5-min Rain = 0
KCR2 141944Z 06005KT 34/19 A3007 RMK A01 T03430190  RH  041%=      5-min Rain = 0
KCR2 141945Z 04008KT 35/19 A3007 RMK A01 T03450191  RH  040%=      5-min Rain = 0
KCR2 141946Z 05012KT 35/19 A3007 RMK A01 T03490192  RH  040%=      5-min Rain = 0
KCR2 141947Z 03007KT 35/19 A3007 RMK A01 T03500193  RH  040%=      5-min Rain = 0
KCR2 141948Z 05009KT 35/19 A3007 RMK A01 T03490193  RH  040%=      5-min Rain = 0
KCR2 141949Z 06010KT 35/19 A3007 RMK A01 T03490192  RH  040%=      5-min Rain = 0
KCR2 141950Z 08011KT 35/19 A3007 RMK A01 T03480188  RH  039%=      5-min Rain = 0
KCR2 141951Z 07011KT 35/19 A3007 RMK A01 T03460188  RH  039%=      5-min Rain = 0
KCR2 141952Z 06012KT 35/19 A3007 RMK A01 T03450188  RH  040%=      5-min Rain = 0
KCR2 141953Z 09009KT 34/19 A3006 RMK A01 T03440188  RH  040%=      5-min Rain = 0
KCR2 141954Z 08008KT 35/19 A3006 RMK A01 T03450188  RH  040%=      5-min Rain = 0
KCR2 141955Z 05009G14KT 35/19 A3006 RMK A01 T03490190  RH  039%=      5-min Rain = 0
KCR2 141956Z 04013KT 35/19 A3006 RMK A01 T03540191  RH  038%=      5-min Rain = 0
KCR2 141957Z 04009KT 35/19 A3006 RMK A01 T03530190  RH  038%=      5-min Rain = 0
KCR2 141958Z 04009KT 35/19 A3006 RMK A01 T03480188  RH  039%=      5-min Rain = 0
KCR2 141959Z 03008KT 35/19 A3006 RMK A01 T03450188  RH  040%=      5-min Rain = 0
KCR2 142000Z 03009KT 35/19 A3006 RMK A01 T03460186  RH  039%=      5-min Rain = 0
KCR2 142001Z 04010G15KT 35/19 A3006 RMK A01 T03480186  RH  038%=      5-min Rain = 0
KCR2 142002Z 03008G17KT 35/18 A3006 RMK A01 T03500184  RH  038%=      5-min Rain = 0
KCR2 142003Z 06014KT 35/19 A3006 RMK A01 T03520186  RH  038%=      5-min Rain = 0
KCR2 142004Z 08012KT 35/19 A3006 RMK A01 T03510186  RH  038%=      5-min Rain = 0
KCR2 142005Z 07011KT 35/19 A3006 RMK A01 T03490186  RH  038%=      5-min Rain = 0
KCR2 142006Z 05011KT 35/19 A3006 RMK A01 T03480186  RH  038%=      5-min Rain = 0
KCR2 142007Z 06009G14KT 35/19 A3006 RMK A01 T03470186  RH  039%=      5-min Rain = 0
KCR2 142008Z 08014KT 35/18 A3006 RMK A01 T03480184  RH  038%=      5-min Rain = 0
KCR2 142009Z 10007KT 35/18 A3006 RMK A01 T03470184  RH  038%=      5-min Rain = 0
KCR2 142010Z 09006KT 35/18 A3006 RMK A01 T03450184  RH  039%=      5-min Rain = 0
KCR2 142011Z 07010KT 35/19 A3006 RMK A01 T03480186  RH  039%=      5-min Rain = 0
KCR2 142012Z 05012KT 36/19 A3006 RMK A01 T03550187  RH  037%=      5-min Rain = 0
KCR2 142013Z 06012KT 36/19 A3006 RMK A01 T03550185  RH  037%=      5-min Rain = 0
KCR2 142014Z 07009KT 35/19 A3006 RMK A01 T03530186  RH  037%=      5-min Rain = 0
KCR2 142015Z 05006KT 35/19 A3006 RMK A01 T03520185  RH  037%=      5-min Rain = 0
KCR2 142016Z 05007KT 35/19 A3006 RMK A01 T03500186  RH  038%=      5-min Rain = 0
KCR2 142017Z 05011KT 35/19 A3005 RMK A01 T03490187  RH  038%=      5-min Rain = 0
KCR2 142018Z 07009KT 35/19 A3006 RMK A01 T03490187  RH  038%=      5-min Rain = 0
KCR2 142019Z 06008KT 35/19 A3005 RMK A01 T03500187  RH  038%=      5-min Rain = 0
KCR2 142020Z 06010KT 35/19 A3005 RMK A01 T03530188  RH  038%=      5-min Rain = 0
KCR2 142021Z 07011KT 36/19 A3005 RMK A01 T03570189  RH  037%=      5-min Rain = 0
KCR2 142022Z 07007KT 36/19 A3005 RMK A01 T03600189  RH  037%=      5-min Rain = 0
KCR2 142023Z 05011KT 36/19 A3005 RMK A01 T03580187  RH  037%=      5-min Rain = 0
KCR2 142024Z 04013KT 36/19 A3005 RMK A01 T03560186  RH  037%=      5-min Rain = 0
KCR2 142025Z 04013KT 36/19 A3005 RMK A01 T03570186  RH  037%=      5-min Rain = 0
KCR2 142026Z 07012KT 36/19 A3005 RMK A01 T03570185  RH  036%=      5-min Rain = 0
KCR2 142027Z 05009KT 36/19 A3005 RMK A01 T03560185  RH  037%=      5-min Rain = 0
KCR2 142028Z 06010KT 36/19 A3005 RMK A01 T03560185  RH  037%=      5-min Rain = 0
KCR2 142029Z 07009KT 36/19 A3005 RMK A01 T03570185  RH  037%=      5-min Rain = 0
KCR2 142030Z 06008KT 36/19 A3005 RMK A01 T03550186  RH  037%=      5-min Rain = 0
KCR2 142031Z 06007KT 35/19 A3005 RMK A01 T03530186  RH  037%=      5-min Rain = 0
KCR2 142032Z 08007KT 35/19 A3005 RMK A01 T03540187  RH  037%=      5-min Rain = 0
KCR2 142033Z 08009G17KT 36/19 A3005 RMK A01 T03570187  RH  037%=      5-min Rain = 0
KCR2 142034Z 09011KT 36/19 A3005 RMK A01 T03590188  RH  037%=      5-min Rain = 0
KCR2 142035Z 10016KT 36/19 A3005 RMK A01 T03580188  RH  037%=      5-min Rain = 0
KCR2 142036Z 10016KT 36/19 A3005 RMK A01 T03580186  RH  036%=      5-min Rain = 0
KCR2 142037Z 09012KT 36/19 A3006 RMK A01 T03550186  RH  037%=      5-min Rain = 0
KCR2 142038Z 08014KT 35/19 A3006 RMK A01 T03540185  RH  037%=      5-min Rain = 0
KCR2 142039Z 08011KT 35/19 A3006 RMK A01 T03540185  RH  037%=      5-min Rain = 0
KCR2 142040Z 08006KT 35/19 A3006 RMK A01 T03540186  RH  037%=      5-min Rain = 0
KCR2 142041Z 09009KT 35/19 A3006 RMK A01 T03540186  RH  037%=      5-min Rain = 0
KCR2 142042Z 09009KT 35/19 A3006 RMK A01 T03510186  RH  038%=      5-min Rain = 0
KCR2 142043Z 07011KT 35/19 A3006 RMK A01 T03530187  RH  038%=      5-min Rain = 0
KCR2 142044Z 07013KT 36/19 A3006 RMK A01 T03600187  RH  036%=      5-min Rain = 0
KCR2 142045Z 04012KT 36/19 A3005 RMK A01 T03620185  RH  035%=      5-min Rain = 0
KCR2 142046Z 06012G17KT 36/19 A3005 RMK A01 T03610185  RH  035%=      5-min Rain = 0
KCR2 142047Z 08012KT 36/18 A3006 RMK A01 T03620181  RH  035%=      5-min Rain = 0
KCR2 142048Z 09013KT 36/18 A3006 RMK A01 T03600180  RH  035%=      5-min Rain = 0
KCR2 142049Z 09013KT 36/18 A3006 RMK A01 T03610182  RH  035%=      5-min Rain = 0
KCR2 142050Z 10010KT 36/18 A3006 RMK A01 T03610183  RH  035%=      5-min Rain = 0
KCR2 142051Z 09012KT 36/18 A3006 RMK A01 T03600182  RH  035%=      5-min Rain = 0
KCR2 142052Z 07012KT 36/18 A3006 RMK A01 T03620180  RH  034%=      5-min Rain = 0
KCR2 142053Z 07012KT 36/18 A3006 RMK A01 T03600178  RH  034%=      5-min Rain = 0
KCR2 142054Z 06010KT 36/18 A3006 RMK A01 T03580179  RH  035%=      5-min Rain = 0
KCR2 142055Z 07008KT 36/18 A3006 RMK A01 T03590181  RH  035%=      5-min Rain = 0
KCR2 142056Z 06009KT 36/18 A3006 RMK A01 T03580182  RH  036%=      5-min Rain = 0
KCR2 142057Z 07006KT 36/18 A3006 RMK A01 T03580183  RH  036%=      5-min Rain = 0
KCR2 142058Z 08005G10KT 36/18 A3006 RMK A01 T03560183  RH  036%=      5-min Rain = 0
KCR2 142059Z 08012KT 36/19 A3006 RMK A01 T03590185  RH  036%=      5-min Rain = 0
KCR2 142100Z 07012KT 37/19 A3006 RMK A01 T03650185  RH  035%=      5-min Rain = 0
KCR2 142101Z 08009KT 36/18 A3006 RMK A01 T03640183  RH  035%=      5-min Rain = 0
KCR2 142102Z 10011KT 36/18 A3006 RMK A01 T03620184  RH  035%=      5-min Rain = 0
KCR2 142103Z 09009KT 36/18 A3006 RMK A01 T03610183  RH  035%=      5-min Rain = 0
KCR2 142104Z 09008KT 36/18 A3006 RMK A01 T03600181  RH  035%=      5-min Rain = 0
KCR2 142105Z 09007KT 36/18 A3006 RMK A01 T03580183  RH  036%=      5-min Rain = 0
KCR2 142106Z 10007G12KT 36/19 A3006 RMK A01 T03640185  RH  035%=      5-min Rain = 0
KCR2 142107Z 08007KT 36/19 A3006 RMK A01 T03640185  RH  035%=      5-min Rain = 0
KCR2 142108Z 06010KT 37/18 A3005 RMK A01 T03680183  RH  034%=      5-min Rain = 0
KCR2 142109Z 06012KT 37/18 A3005 RMK A01 T03650178  RH  033%=      5-min Rain = 0
KCR2 142110Z 05011KT 36/18 A3005 RMK A01 T03610177  RH  034%=      5-min Rain = 0
KCR2 142111Z 06011KT 36/18 A3005 RMK A01 T03590178  RH  034%=      5-min Rain = 0
KCR2 142112Z 07010KT 36/18 A3005 RMK A01 T03590180  RH  035%=      5-min Rain = 0
KCR2 142113Z 07013KT 36/18 A3005 RMK A01 T03600181  RH  035%=      5-min Rain = 0
KCR2 142114Z 06010KT 36/18 A3005 RMK A01 T03590182  RH  035%=      5-min Rain = 0
KCR2 142115Z 09009KT 36/18 A3005 RMK A01 T03580183  RH  036%=      5-min Rain = 0
KCR2 142116Z 11012KT 36/18 A3005 RMK A01 T03630184  RH  035%=      5-min Rain = 0
KCR2 142117Z 10010KT 36/18 A3005 RMK A01 T03600183  RH  035%=      5-min Rain = 0
KCR2 142118Z 09006KT 36/19 A3005 RMK A01 T03610185  RH  036%=      5-min Rain = 0
KCR2 142119Z 09007KT 37/18 A3005 RMK A01 T03660184  RH  034%=      5-min Rain = 0
KCR2 142120Z 08006KT 36/18 A3005 RMK A01 T03640184  RH  035%=      5-min Rain = 0
KCR2 142121Z 06011KT 37/18 A3005 RMK A01 T03670182  RH  034%=      5-min Rain = 0
KCR2 142122Z 06012KT 37/18 A3005 RMK A01 T03660179  RH  033%=      5-min Rain = 0
KCR2 142123Z 07012KT 36/18 A3005 RMK A01 T03640179  RH  034%=      5-min Rain = 0
KCR2 142124Z 08012KT 36/18 A3005 RMK A01 T03610177  RH  034%=      5-min Rain = 0
KCR2 142125Z 07009KT 36/18 A3005 RMK A01 T03570177  RH  035%=      5-min Rain = 0
KCR2 142126Z 06010KT 36/18 A3005 RMK A01 T03550177  RH  035%=      5-min Rain = 0
KCR2 142127Z 05011KT 36/18 A3005 RMK A01 T03560178  RH  035%=      5-min Rain = 0
KCR2 142128Z 06015KT 36/18 A3005 RMK A01 T03560180  RH  036%=      5-min Rain = 0
KCR2 142129Z 07013KT 36/18 A3005 RMK A01 T03550180  RH  036%=      5-min Rain = 0
KCR2 142130Z 07009KT 36/18 A3005 RMK A01 T03560180  RH  036%=      5-min Rain = 0
KCR2 142131Z 05009KT 36/18 A3005 RMK A01 T03560180  RH  035%=      5-min Rain = 0
KCR2 142132Z 05009KT 36/18 A3005 RMK A01 T03560180  RH  035%=      5-min Rain = 0
KCR2 142133Z 04008KT 36/18 A3005 RMK A01 T03550180  RH  036%=      5-min Rain = 0
KCR2 142134Z 04006KT 36/18 A3005 RMK A01 T03560178  RH  035%=      5-min Rain = 0
KCR2 142135Z 08008KT 36/18 A3005 RMK A01 T03560179  RH  035%=      5-min Rain = 0
KCR2 142136Z 11007KT 36/18 A3005 RMK A01 T03550179  RH  035%=      5-min Rain = 0
KCR2 142137Z 11007KT 36/18 A3005 RMK A01 T03560179  RH  035%=      5-min Rain = 0
KCR2 142138Z 10009KT 36/18 A3005 RMK A01 T03590179  RH  035%=      5-min Rain = 0
KCR2 142139Z 09011KT 36/18 A3005 RMK A01 T03630181  RH  034%=      5-min Rain = 0
KCR2 142140Z 07010KT 37/18 A3005 RMK A01 T03650180  RH  034%=      5-min Rain = 0
KCR2 142141Z 05012KT 37/18 A3005 RMK A01 T03650181  RH  034%=      5-min Rain = 0
KCR2 142142Z 05011KT 37/18 A3005 RMK A01 T03660180  RH  034%=      5-min Rain = 0
KCR2 142143Z 06007KT 36/18 A3005 RMK A01 T03620180  RH  034%=      5-min Rain = 0
KCR2 142144Z 07009KT 36/18 A3005 RMK A01 T03620180  RH  034%=      5-min Rain = 0
KCR2 142145Z 07008KT 36/18 A3005 RMK A01 T03620180  RH  034%=      5-min Rain = 0
KCR2 142146Z 09011KT 36/18 A3005 RMK A01 T03610180  RH  034%=      5-min Rain = 0
KCR2 142147Z 10010KT 36/18 A3005 RMK A01 T03610178  RH  034%=      5-min Rain = 0
KCR2 142148Z 12008KT 36/18 A3004 RMK A01 T03610179  RH  034%=      5-min Rain = 0
KCR2 142149Z 12008KT 37/18 A3004 RMK A01 T03660180  RH  034%=      5-min Rain = 0
KCR2 142150Z 11008KT 37/18 A3004 RMK A01 T03670179  RH  033%=      5-min Rain = 0
KCR2 142151Z 06009KT 37/18 A3004 RMK A01 T03670178  RH  033%=      5-min Rain = 0
KCR2 142152Z 06009G16KT 37/18 A3004 RMK A01 T03690177  RH  032%=      5-min Rain = 0
KCR2 142153Z 08011KT 37/18 A3004 RMK A01 T03670176  RH  033%=      5-min Rain = 0
KCR2 142154Z 07008KT 37/18 A3004 RMK A01 T03660176  RH  033%=      5-min Rain = 0
KCR2 142155Z 08010KT 37/18 A3004 RMK A01 T03650177  RH  033%=      5-min Rain = 0
KCR2 142156Z 07009KT 37/18 A3004 RMK A01 T03650178  RH  033%=      5-min Rain = 0
KCR2 142157Z 07009KT 37/18 A3004 RMK A01 T03710178  RH  032%=      5-min Rain = 0
KCR2 142158Z 08010KT 37/18 A3004 RMK A01 T03730177  RH  032%=      5-min Rain = 0
KCR2 142159Z 08009KT 37/18 A3004 RMK A01 T03730177  RH  032%=      5-min Rain = 0
KCR2 142200Z 07009KT 37/18 A3004 RMK A01 T03730176  RH  032%=      5-min Rain = 0
KCR2 142201Z 10008KT 37/18 A3004 RMK A01 T03700177  RH  032%=      5-min Rain = 0
KCR2 142202Z 11008KT 37/18 A3004 RMK A01 T03690178  RH  032%=      5-min Rain = 0
KCR2 142203Z 11009KT 37/18 A3004 RMK A01 T03690178  RH  033%=      5-min Rain = 0
KCR2 142204Z 10011KT 37/18 A3004 RMK A01 T03670178  RH  033%=      5-min Rain = 0
KCR2 142205Z 12010KT 37/18 A3004 RMK A01 T03690178  RH  033%=      5-min Rain = 0
KCR2 142206Z 11011KT 37/18 A3004 RMK A01 T03690177  RH  033%=      5-min Rain = 0
KCR2 142207Z 10011KT 37/18 A3004 RMK A01 T03670177  RH  033%=      5-min Rain = 0
KCR2 142208Z 09009KT 37/18 A3004 RMK A01 T03660176  RH  033%=      5-min Rain = 0
KCR2 142209Z 11010KT 36/18 A3004 RMK A01 T03630176  RH  033%=      5-min Rain = 0
KCR2 142210Z 13015KT 36/18 A3004 RMK A01 T03610175  RH  033%=      5-min Rain = 0
KCR2 142211Z 12013KT 36/18 A3004 RMK A01 T03580175  RH  034%=      5-min Rain = 0
KCR2 142212Z 13014KT 36/18 A3004 RMK A01 T03570175  RH  034%=      5-min Rain = 0
KCR2 142213Z 13014KT 36/18 A3004 RMK A01 T03580175  RH  034%=      5-min Rain = 0
KCR2 142214Z 12013KT 36/18 A3004 RMK A01 T03590175  RH  034%=      5-min Rain = 0
KCR2 142215Z 12010KT 36/17 A3004 RMK A01 T03560174  RH  034%=      5-min Rain = 0
KCR2 142216Z 14012KT 35/18 A3004 RMK A01 T03540175  RH  035%=      5-min Rain = 0
KCR2 142217Z 17016KT 35/18 A3004 RMK A01 T03520179  RH  036%=      5-min Rain = 0
KCR2 142218Z 17014KT 34/18 A3004 RMK A01 T03420180  RH  038%=      5-min Rain = 0
KCR2 142219Z 18018KT 33/18 A3004 RMK A01 T03330179  RH  040%=      5-min Rain = 0
KCR2 142220Z 18014KT 32/18 A3004 RMK A01 T03230179  RH  042%=      5-min Rain = 0
KCR2 142221Z 17012KT 32/18 A3004 RMK A01 T03180180  RH  044%=      5-min Rain = 0
KCR2 142222Z 19014KT 32/18 A3004 RMK A01 T03160180  RH  044%=      5-min Rain = 0
KCR2 142223Z 20019G24KT 32/18 A3003 RMK A01 T03190181  RH  044%=      5-min Rain = 0
KCR2 142224Z 19020KT 32/18 A3003 RMK A01 T03190180  RH  044%=      5-min Rain = 0
KCR2 142225Z 19019KT 32/18 A3003 RMK A01 T03170180  RH  044%=      5-min Rain = 0
KCR2 142226Z 19020KT 32/18 A3003 RMK A01 T03170180  RH  044%=      5-min Rain = 0
KCR2 142227Z 20019KT 32/18 A3004 RMK A01 T03150180  RH  044%=      5-min Rain = 0
KCR2 142228Z 20018KT 31/18 A3004 RMK A01 T03140179  RH  045%=      5-min Rain = 0
KCR2 142229Z 19018KT 31/18 A3004 RMK A01 T03140179  RH  045%=      5-min Rain = 0
KCR2 142230Z 19019KT 31/18 A3004 RMK A01 T03130179  RH  045%=      5-min Rain = 0
KCR2 142231Z 19018KT 31/18 A3004 RMK A01 T03110179  RH  045%=      5-min Rain = 0
KCR2 142232Z 20017KT 31/18 A3004 RMK A01 T03100179  RH  045%=      5-min Rain = 0
KCR2 142233Z 20016KT 31/18 A3004 RMK A01 T03110179  RH  045%=      5-min Rain = 0
KCR2 142234Z 20015KT 31/18 A3004 RMK A01 T03110179  RH  045%=      5-min Rain = 0
KCR2 142235Z 19016KT 31/18 A3004 RMK A01 T03110179  RH  045%=      5-min Rain = 0
KCR2 142236Z 19019KT 31/18 A3004 RMK A01 T03110179  RH  045%=      5-min Rain = 0
KCR2 142237Z 19018KT 31/18 A3004 RMK A01 T03110179  RH  045%=      5-min Rain = 0
KCR2 142238Z 20018G24KT 31/18 A3004 RMK A01 T03100179  RH  046%=      5-min Rain = 0
KCR2 142239Z 19019KT 31/18 A3004 RMK A01 T03080179  RH  046%=      5-min Rain = 0
KCR2 142240Z 20018KT 31/18 A3004 RMK A01 T03070179  RH  046%=      5-min Rain = 0
KCR2 142241Z 20021KT 30/18 A3004 RMK A01 T03040178  RH  047%=      5-min Rain = 0
KCR2 142242Z 19018KT 30/18 A3005 RMK A01 T03020179  RH  048%=      5-min Rain = 0
KCR2 142243Z 19019KT 30/18 A3004 RMK A01 T03010179  RH  048%=      5-min Rain = 0
KCR2 142244Z 19018KT 30/18 A3004 RMK A01 T03000179  RH  048%=      5-min Rain = 0
KCR2 142245Z 18016KT 30/18 A3004 RMK A01 T03000180  RH  049%=      5-min Rain = 0
KCR2 142246Z 19017KT 30/18 A3004 RMK A01 T03000180  RH  049%=      5-min Rain = 0
KCR2 142247Z 19019KT 30/18 A3004 RMK A01 T03000181  RH  049%=      5-min Rain = 0
KCR2 142248Z 19015KT 30/18 A3004 RMK A01 T02980181  RH  049%=      5-min Rain = 0
KCR2 142249Z 19018KT 30/18 A3004 RMK A01 T02980181  RH  049%=      5-min Rain = 0
KCR2 142250Z 19019KT 30/18 A3004 RMK A01 T02970181  RH  050%=      5-min Rain = 0
KCR2 142251Z 19017KT 30/18 A3004 RMK A01 T02960182  RH  050%=      5-min Rain = 0
KCR2 142252Z 19016KT 30/18 A3004 RMK A01 T02950184  RH  051%=      5-min Rain = 0
KCR2 142253Z 19013KT 29/19 A3004 RMK A01 T02940186  RH  052%=      5-min Rain = 0
KCR2 142254Z 20013G18KT 29/19 A3004 RMK A01 T02940189  RH  053%=      5-min Rain = 0
KCR2 142255Z 19014KT 29/19 A3004 RMK A01 T02940187  RH  053%=      5-min Rain = 0
KCR2 142256Z 19015KT 29/19 A3004 RMK A01 T02930190  RH  054%=      5-min Rain = 0
KCR2 142257Z 20017KT 29/19 A3004 RMK A01 T02920190  RH  054%=      5-min Rain = 0
KCR2 142258Z 20016KT 29/19 A3004 RMK A01 T02900189  RH  055%=      5-min Rain = 0
KCR2 142259Z 19018KT 29/19 A3003 RMK A01 T02890190  RH  055%=      5-min Rain = 0
KCR2 142300Z 19015KT 29/19 A3003 RMK A01 T02880190  RH  056%=      5-min Rain = 0
KCR2 142301Z 19014KT 29/19 A3003 RMK A01 T02870190  RH  056%=      5-min Rain = 0
KCR2 142302Z 18014KT 29/19 A3003 RMK A01 T02870191  RH  056%=      5-min Rain = 0
KCR2 142303Z 18014KT 29/19 A3003 RMK A01 T02870191  RH  056%=      5-min Rain = 0
KCR2 142304Z 19015KT 29/19 A3003 RMK A01 T02870192  RH  056%=      5-min Rain = 0
KCR2 142305Z 19015KT 29/19 A3004 RMK A01 T02870192  RH  056%=      5-min Rain = 0
KCR2 142306Z 19016G21KT 29/19 A3004 RMK A01 T02880192  RH  056%=      5-min Rain = 0
KCR2 142307Z 19015KT 29/19 A3004 RMK A01 T02870191  RH  056%=      5-min Rain = 0
KCR2 142308Z 19014KT 29/19 A3004 RMK A01 T02880192  RH  056%=      5-min Rain = 0
KCR2 142309Z 18018KT 29/19 A3003 RMK A01 T02880190  RH  055%=      5-min Rain = 0
KCR2 142310Z 19019KT 29/19 A3003 RMK A01 T02880188  RH  055%=      5-min Rain = 0
KCR2 142311Z 18018KT 29/19 A3003 RMK A01 T02880187  RH  054%=      5-min Rain = 0
KCR2 142312Z 19016KT 29/19 A3003 RMK A01 T02880187  RH  054%=      5-min Rain = 0
KCR2 142313Z 19015KT 29/19 A3004 RMK A01 T02920188  RH  054%=      5-min Rain = 0
KCR2 142314Z 19014KT 29/19 A3004 RMK A01 T02930188  RH  053%=      5-min Rain = 0
KCR2 142315Z 19014KT 30/19 A3004 RMK A01 T02950188  RH  053%=      5-min Rain = 0
KCR2 142316Z 19012KT 30/19 A3004 RMK A01 T02960189  RH  052%=      5-min Rain = 0
KCR2 142317Z 19012KT 30/19 A3004 RMK A01 T02980190  RH  052%=      5-min Rain = 0
KCR2 142318Z 19014KT 30/19 A3004 RMK A01 T03000190  RH  052%=      5-min Rain = 0
KCR2 142319Z 19015KT 30/19 A3004 RMK A01 T02990189  RH  052%=      5-min Rain = 0
KCR2 142320Z 19014KT 30/19 A3004 RMK A01 T02990189  RH  052%=      5-min Rain = 0
KCR2 142321Z 19014KT 30/19 A3004 RMK A01 T03000189  RH  051%=      5-min Rain = 0
KCR2 142322Z 20013KT 30/19 A3003 RMK A01 T03010189  RH  051%=      5-min Rain = 0
KCR2 142323Z 19015KT 30/19 A3003 RMK A01 T03010189  RH  051%=      5-min Rain = 0
KCR2 142324Z 19016KT 30/19 A3003 RMK A01 T02990188  RH  051%=      5-min Rain = 0
KCR2 142325Z 19015KT 30/19 A3003 RMK A01 T02980188  RH  052%=      5-min Rain = 0
KCR2 142326Z 19016KT 30/19 A3003 RMK A01 T02980188  RH  052%=      5-min Rain = 0
KCR2 142327Z 19013KT 30/19 A3003 RMK A01 T02990187  RH  051%=      5-min Rain = 0
KCR2 142328Z 18011KT 30/19 A3004 RMK A01 T02990188  RH  051%=      5-min Rain = 0
KCR2 142329Z 19011KT 30/19 A3004 RMK A01 T03010189  RH  051%=      5-min Rain = 0
KCR2 142330Z 18011KT 30/19 A3004 RMK A01 T03020189  RH  051%=      5-min Rain = 0
KCR2 142331Z 19015KT 30/19 A3004 RMK A01 T03030190  RH  051%=      5-min Rain = 0
KCR2 142332Z 19017KT 30/19 A3004 RMK A01 T03020189  RH  051%=      5-min Rain = 0
KCR2 142333Z 18016KT 30/19 A3004 RMK A01 T02990188  RH  051%=      5-min Rain = 0
KCR2 142334Z 18014KT 30/19 A3004 RMK A01 T02980189  RH  052%=      5-min Rain = 0
KCR2 142335Z 18015KT 30/19 A3003 RMK A01 T02980189  RH  052%=      5-min Rain = 0
KCR2 142336Z 19013KT 30/19 A3004 RMK A01 T02990190  RH  052%=      5-min Rain = 0
KCR2 142337Z 18013KT 30/19 A3004 RMK A01 T02990190  RH  052%=      5-min Rain = 0
KCR2 142338Z 19012KT 30/19 A3003 RMK A01 T02980190  RH  052%=      5-min Rain = 0
KCR2 142339Z 19014KT 30/19 A3003 RMK A01 T02980189  RH  052%=      5-min Rain = 0
KCR2 142340Z 18014KT 30/19 A3003 RMK A01 T02980189  RH  052%=      5-min Rain = 0
KCR2 142341Z 19012KT 30/19 A3003 RMK A01 T02980190  RH  052%=      5-min Rain = 0
KCR2 142342Z 19014KT 30/19 A3003 RMK A01 T02990189  RH  052%=      5-min Rain = 0
KCR2 142343Z 19014KT 30/19 A3004 RMK A01 T02990189  RH  052%=      5-min Rain = 0
KCR2 142344Z 18011KT 30/19 A3004 RMK A01 T02970189  RH  052%=      5-min Rain = 0
KCR2 142345Z 19014KT 30/19 A3004 RMK A01 T02980190  RH  052%=      5-min Rain = 0
KCR2 142346Z 19014KT 30/19 A3004 RMK A01 T02980190  RH  052%=      5-min Rain = 0
KCR2 142347Z 18014KT 30/19 A3004 RMK A01 T02970190  RH  053%=      5-min Rain = 0
KCR2 142348Z 19012KT 30/19 A3004 RMK A01 T02960190  RH  053%=      5-min Rain = 0
KCR2 142349Z 18013KT 30/19 A3004 RMK A01 T02960191  RH  053%=      5-min Rain = 0
KCR2 142350Z 18011KT 30/19 A3004 RMK A01 T02970190  RH  053%=      5-min Rain = 0
KCR2 142351Z 18011KT 30/19 A3004 RMK A01 T02960191  RH  053%=      5-min Rain = 0
KCR2 142352Z 19013KT 30/19 A3004 RMK A01 T02960190  RH  053%=      5-min Rain = 0
KCR2 142353Z 19011KT 30/19 A3003 RMK A01 T02960190  RH  053%=      5-min Rain = 0
KCR2 142354Z 18010KT 30/19 A3003 RMK A01 T02960190  RH  053%=      5-min Rain = 0
KCR2 142355Z 19007KT 30/19 A3004 RMK A01 T02970191  RH  053%=      5-min Rain = 0
KCR2 142356Z 19011KT 30/19 A3004 RMK A01 T02980190  RH  053%=      5-min Rain = 0
KCR2 142357Z 19013KT 30/19 A3004 RMK A01 T02980189  RH  052%=      5-min Rain = 0
KCR2 142358Z 19012KT 30/19 A3004 RMK A01 T02990189  RH  052%=      5-min Rain = 0
KCR2 142359Z 18012KT 30/19 A3004 RMK A01 T02990188  RH  051%=      5-min Rain = 0
KCR2 150000Z 19012KT 30/19 A3004 RMK A01 T02980186  RH  051%=      5-min Rain = 0
KCR2 150001Z 18012KT 30/19 A3004 RMK A01 T02980186  RH  051%=      5-min Rain = 0
KCR2 150002Z 18009KT 30/19 A3004 RMK A01 T02990186  RH  051%=      5-min Rain = 0
KCR2 150003Z 19009KT 30/19 A3004 RMK A01 T03000186  RH  050%=      5-min Rain = 0
KCR2 150004Z 19010KT 30/19 A3004 RMK A01 T03000185  RH  050%=      5-min Rain = 0
KCR2 150005Z 19011KT 30/18 A3004 RMK A01 T03000184  RH  050%=      5-min Rain = 0
KCR2 150006Z 18010KT 30/18 A3004 RMK A01 T02990183  RH  050%=      5-min Rain = 0
KCR2 150007Z 20008KT 30/18 A3004 RMK A01 T02980184  RH  050%=      5-min Rain = 0
KCR2 150008Z 20006KT 30/18 A3004 RMK A01 T02970184  RH  051%=      5-min Rain = 0
KCR2 150009Z 19008KT 30/18 A3004 RMK A01 T02970183  RH  050%=      5-min Rain = 0
KCR2 150010Z 20011KT 30/18 A3004 RMK A01 T02980182  RH  050%=      5-min Rain = 0
KCR2 150011Z 20010KT 30/18 A3004 RMK A01 T02970180  RH  049%=      5-min Rain = 0
KCR2 150012Z 19011KT 30/18 A3003 RMK A01 T02970179  RH  049%=      5-min Rain = 0
KCR2 150013Z 18013KT 30/18 A3003 RMK A01 T02970179  RH  049%=      5-min Rain = 0
KCR2 150014Z 18013KT 30/18 A3003 RMK A01 T02970179  RH  049%=      5-min Rain = 0
KCR2 150015Z 19012KT 30/18 A3004 RMK A01 T02970178  RH  049%=      5-min Rain = 0
KCR2 150016Z 19013KT 30/18 A3004 RMK A01 T02970177  RH  049%=      5-min Rain = 0
KCR2 150017Z 19012KT 30/18 A3004 RMK A01 T02960176  RH  048%=      5-min Rain = 0
KCR2 150018Z 18011KT 30/18 A3003 RMK A01 T02960177  RH  049%=      5-min Rain = 0
KCR2 150019Z 18009KT 30/18 A3003 RMK A01 T02950176  RH  049%=      5-min Rain = 0
KCR2 150020Z 19009KT 30/18 A3003 RMK A01 T02950177  RH  049%=      5-min Rain = 0
KCR2 150021Z 19010KT 30/18 A3003 RMK A01 T02950176  RH  049%=      5-min Rain = 0
KCR2 150022Z 18013KT 30/17 A3003 RMK A01 T02950174  RH  048%=      5-min Rain = 0
KCR2 150023Z 18013KT 30/17 A3003 RMK A01 T02950173  RH  048%=      5-min Rain = 0
KCR2 150024Z 19011KT 29/17 A3003 RMK A01 T02940173  RH  048%=      5-min Rain = 0
KCR2 150025Z 18013KT 29/17 A3004 RMK A01 T02940173  RH  048%=      5-min Rain = 0
KCR2 150026Z 19010KT 29/17 A3004 RMK A01 T02940173  RH  048%=      5-min Rain = 0
KCR2 150027Z 19010KT 29/17 A3004 RMK A01 T02930174  RH  049%=      5-min Rain = 0
KCR2 150028Z 20011KT 29/17 A3004 RMK A01 T02930174  RH  048%=      5-min Rain = 0
KCR2 150029Z 20012KT 29/17 A3004 RMK A01 T02930174  RH  049%=      5-min Rain = 0
KCR2 150030Z 19012KT 29/17 A3004 RMK A01 T02920174  RH  049%=      5-min Rain = 0
KCR2 150031Z 21009KT 29/18 A3004 RMK A01 T02910175  RH  049%=      5-min Rain = 0
KCR2 150032Z 21008KT 29/18 A3004 RMK A01 T02910175  RH  050%=      5-min Rain = 0
KCR2 150033Z 20009KT 29/18 A3004 RMK A01 T02910176  RH  050%=      5-min Rain = 0
KCR2 150034Z 20012KT 29/18 A3004 RMK A01 T02910176  RH  050%=      5-min Rain = 0
KCR2 150035Z 21012KT 29/18 A3004 RMK A01 T02900176  RH  050%=      5-min Rain = 0
KCR2 150036Z 20011KT 29/18 A3004 RMK A01 T02890176  RH  050%=      5-min Rain = 0
KCR2 150037Z 20010KT 29/18 A3004 RMK A01 T02880176  RH  051%=      5-min Rain = 0
KCR2 150038Z 22010KT 29/18 A3004 RMK A01 T02880176  RH  051%=      5-min Rain = 0
KCR2 150039Z 21011KT 29/18 A3004 RMK A01 T02880176  RH  051%=      5-min Rain = 0
KCR2 150040Z 21013KT 29/18 A3004 RMK A01 T02880176  RH  051%=      5-min Rain = 0
KCR2 150041Z 21012KT 29/18 A3005 RMK A01 T02870176  RH  051%=      5-min Rain = 0
KCR2 150042Z 21011KT 29/18 A3005 RMK A01 T02870176  RH  051%=      5-min Rain = 0
KCR2 150043Z 21009KT 29/18 A3005 RMK A01 T02870176  RH  051%=      5-min Rain = 0
KCR2 150044Z 21008KT 29/18 A3005 RMK A01 T02870177  RH  051%=      5-min Rain = 0
KCR2 150045Z 21008KT 29/18 A3005 RMK A01 T02870176  RH  051%=      5-min Rain = 0
KCR2 150046Z 21008KT 29/18 A3005 RMK A01 T02870177  RH  051%=      5-min Rain = 0
KCR2 150047Z 21009KT 29/18 A3005 RMK A01 T02880177  RH  051%=      5-min Rain = 0
KCR2 150048Z 22009KT 29/18 A3005 RMK A01 T02870177  RH  051%=      5-min Rain = 0
KCR2 150049Z 20009KT 29/18 A3005 RMK A01 T02870177  RH  051%=      5-min Rain = 0
KCR2 150050Z 20009KT 29/18 A3005 RMK A01 T02870176  RH  051%=      5-min Rain = 0
KCR2 150051Z 21009KT 29/18 A3005 RMK A01 T02870176  RH  051%=      5-min Rain = 0
KCR2 150052Z 21010KT 29/18 A3005 RMK A01 T02870176  RH  051%=      5-min Rain = 0
KCR2 150053Z 22010KT 29/18 A3005 RMK A01 T02860176  RH  051%=      5-min Rain = 0
KCR2 150054Z 22009KT 29/18 A3005 RMK A01 T02870177  RH  051%=      5-min Rain = 0
KCR2 150055Z 21008KT 29/18 A3005 RMK A01 T02860177  RH  052%=      5-min Rain = 0
KCR2 150056Z 22008KT 29/18 A3005 RMK A01 T02870177  RH  052%=      5-min Rain = 0
KCR2 150057Z 22007KT 29/18 A3005 RMK A01 T02860177  RH  052%=      5-min Rain = 0
KCR2 150058Z 22009KT 29/18 A3005 RMK A01 T02870178  RH  052%=      5-min Rain = 0
KCR2 150059Z 21008KT 29/18 A3005 RMK A01 T02860178  RH  052%=      5-min Rain = 0
KCR2 150100Z 21008KT 29/18 A3005 RMK A01 T02860177  RH  052%=      5-min Rain = 0
KCR2 150101Z 21007KT 29/18 A3005 RMK A01 T02860177  RH  052%=      5-min Rain = 0
KCR2 150102Z 21010KT 29/18 A3005 RMK A01 T02860177  RH  051%=      5-min Rain = 0
KCR2 150103Z 22010KT 29/18 A3005 RMK A01 T02860177  RH  051%=      5-min Rain = 0
KCR2 150104Z 21008KT 29/18 A3005 RMK A01 T02870177  RH  052%=      5-min Rain = 0
KCR2 150105Z 21007KT 29/18 A3006 RMK A01 T02860177  RH  052%=      5-min Rain = 0
KCR2 150106Z 21009KT 29/18 A3006 RMK A01 T02860177  RH  052%=      5-min Rain = 0
KCR2 150107Z 21010KT 29/18 A3006 RMK A01 T02870177  RH  051%=      5-min Rain = 0
KCR2 150108Z 21010KT 29/18 A3006 RMK A01 T02860177  RH  052%=      5-min Rain = 0
KCR2 150109Z 21009KT 29/18 A3006 RMK A01 T02870177  RH  052%=      5-min Rain = 0
KCR2 150110Z 21009KT 29/18 A3006 RMK A01 T02860177  RH  052%=      5-min Rain = 0
KCR2 150111Z 21008KT 29/18 A3005 RMK A01 T02860177  RH  052%=      5-min Rain = 0
KCR2 150112Z 20008KT 29/18 A3005 RMK A01 T02860177  RH  052%=      5-min Rain = 0
KCR2 150113Z 20007KT 29/18 A3005 RMK A01 T02850177  RH  052%=      5-min Rain = 0
KCR2 150114Z 20007KT 29/18 A3005 RMK A01 T02860177  RH  052%=      5-min Rain = 0
KCR2 150115Z 20008KT 29/18 A3006 RMK A01 T02860178  RH  052%=      5-min Rain = 0
KCR2 150116Z 20009KT 29/18 A3006 RMK A01 T02860177  RH  052%=      5-min Rain = 0
KCR2 150117Z 20009KT 29/18 A3006 RMK A01 T02850177  RH  052%=      5-min Rain = 0
KCR2 150118Z 20008KT 29/18 A3005 RMK A01 T02860177  RH  052%=      5-min Rain = 0
KCR2 150119Z 19009KT 29/18 A3005 RMK A01 T02860178  RH  052%=      5-min Rain = 0
KCR2 150120Z 19010KT 29/18 A3005 RMK A01 T02860178  RH  052%=      5-min Rain = 0
KCR2 150121Z 19009KT 29/18 A3005 RMK A01 T02860178  RH  052%=      5-min Rain = 0
KCR2 150122Z 19008KT 29/18 A3005 RMK A01 T02870178  RH  052%=      5-min Rain = 0
KCR2 150123Z 19008KT 29/18 A3005 RMK A01 T02860178  RH  052%=      5-min Rain = 0
KCR2 150124Z 20010KT 29/18 A3005 RMK A01 T02860178  RH  052%=      5-min Rain = 0
KCR2 150125Z 19011KT 29/18 A3005 RMK A01 T02870179  RH  052%=      5-min Rain = 0
KCR2 150126Z 19010KT 29/18 A3005 RMK A01 T02860179  RH  052%=      5-min Rain = 0
KCR2 150127Z 19010KT 29/18 A3005 RMK A01 T02860179  RH  052%=      5-min Rain = 0
KCR2 150128Z 19010KT 29/18 A3005 RMK A01 T02860179  RH  052%=      5-min Rain = 0
KCR2 150129Z 20009KT 29/18 A3005 RMK A01 T02860179  RH  052%=      5-min Rain = 0
KCR2 150130Z 20009KT 29/18 A3005 RMK A01 T02860179  RH  053%=      5-min Rain = 0
KCR2 150131Z 20009KT 29/18 A3005 RMK A01 T02860179  RH  053%=      5-min Rain = 0
KCR2 150132Z 20008KT 29/18 A3005 RMK A01 T02850179  RH  053%=      5-min Rain = 0
KCR2 150133Z 20008KT 29/18 A3005 RMK A01 T02850180  RH  053%=      5-min Rain = 0
KCR2 150134Z 20010KT 29/18 A3005 RMK A01 T02850180  RH  053%=      5-min Rain = 0
KCR2 150135Z 20008KT 29/18 A3005 RMK A01 T02850180  RH  053%=      5-min Rain = 0
KCR2 150136Z 20007KT 29/18 A3005 RMK A01 T02850180  RH  053%=      5-min Rain = 0
KCR2 150137Z 21005KT 29/18 A3005 RMK A01 T02850180  RH  053%=      5-min Rain = 0
KCR2 150138Z 21007KT 29/18 A3005 RMK A01 T02850179  RH  053%=      5-min Rain = 0
KCR2 150139Z 20007KT 29/18 A3005 RMK A01 T02850180  RH  053%=      5-min Rain = 0
KCR2 150140Z 21007KT 28/18 A3006 RMK A01 T02840179  RH  053%=      5-min Rain = 0
KCR2 150141Z 21007KT 28/18 A3006 RMK A01 T02840179  RH  053%=      5-min Rain = 0
KCR2 150142Z 21009KT 28/18 A3006 RMK A01 T02840179  RH  053%=      5-min Rain = 0
KCR2 150143Z 22007KT 28/18 A3006 RMK A01 T02840179  RH  053%=      5-min Rain = 0
KCR2 150144Z 22006KT 28/18 A3006 RMK A01 T02840179  RH  053%=      5-min Rain = 0
KCR2 150145Z 22006KT 28/18 A3006 RMK A01 T02840180  RH  053%=      5-min Rain = 0
KCR2 150146Z 22006KT 28/18 A3006 RMK A01 T02830180  RH  054%=      5-min Rain = 0
KCR2 150147Z 23006KT 28/18 A3006 RMK A01 T02830181  RH  054%=      5-min Rain = 0
KCR2 150148Z 22006KT 28/18 A3006 RMK A01 T02830182  RH  054%=      5-min Rain = 0
KCR2 150149Z 21007KT 28/18 A3006 RMK A01 T02830181  RH  054%=      5-min Rain = 0
KCR2 150150Z 21006KT 28/18 A3006 RMK A01 T02830181  RH  054%=      5-min Rain = 0
KCR2 150151Z 22007KT 28/18 A3006 RMK A01 T02830180  RH  054%=      5-min Rain = 0
KCR2 150152Z 21007KT 28/18 A3006 RMK A01 T02830180  RH  054%=      5-min Rain = 0
KCR2 150153Z 21007KT 28/18 A3006 RMK A01 T02830180  RH  054%=      5-min Rain = 0
KCR2 150154Z 21006KT 28/18 A3006 RMK A01 T02830180  RH  054%=      5-min Rain = 0
KCR2 150155Z 21007KT 28/18 A3006 RMK A01 T02830180  RH  054%=      5-min Rain = 0
KCR2 150156Z 21007KT 28/18 A3006 RMK A01 T02830180  RH  054%=      5-min Rain = 0
KCR2 150157Z 21007KT 28/18 A3006 RMK A01 T02830180  RH  054%=      5-min Rain = 0
KCR2 150158Z 21006KT 28/18 A3006 RMK A01 T02830180  RH  054%=      5-min Rain = 0
KCR2 150159Z 22005KT 28/18 A3006 RMK A01 T02830180  RH  054%=      5-min Rain = 0
KCR2 150200Z 22005KT 28/18 A3006 RMK A01 T02830180  RH  054%=      5-min Rain = 0
KCR2 150201Z 22004KT 28/18 A3006 RMK A01 T02830180  RH  054%=      5-min Rain = 0
KCR2 150202Z 23004KT 28/18 A3006 RMK A01 T02830181  RH  054%=      5-min Rain = 0
KCR2 150203Z 22003KT 28/18 A3007 RMK A01 T02830182  RH  054%=      5-min Rain = 0
KCR2 150204Z 22003KT 28/18 A3007 RMK A01 T02830182  RH  054%=      5-min Rain = 0
KCR2 150205Z 20004KT 28/18 A3007 RMK A01 T02830182  RH  054%=      5-min Rain = 0
KCR2 150206Z 21005KT 28/18 A3007 RMK A01 T02830180  RH  054%=      5-min Rain = 0
KCR2 150207Z 21004KT 28/18 A3007 RMK A01 T02830180  RH  054%=      5-min Rain = 0
KCR2 150208Z 21005KT 28/18 A3007 RMK A01 T02830180  RH  054%=      5-min Rain = 0
KCR2 150209Z 21004KT 28/18 A3007 RMK A01 T02830179  RH  053%=      5-min Rain = 0
KCR2 150210Z 22004KT 28/18 A3007 RMK A01 T02830179  RH  053%=      5-min Rain = 0
KCR2 150211Z 22005KT 28/18 A3007 RMK A01 T02830180  RH  054%=      5-min Rain = 0
KCR2 150212Z 21004KT 28/18 A3007 RMK A01 T02830179  RH  053%=      5-min Rain = 0
KCR2 150213Z 22005KT 28/18 A3007 RMK A01 T02830179  RH  053%=      5-min Rain = 0
KCR2 150214Z 21005KT 28/18 A3007 RMK A01 T02830179  RH  053%=      5-min Rain = 0
KCR2 150215Z 20005KT 28/18 A3007 RMK A01 T02830179  RH  053%=      5-min Rain = 0
KCR2 150216Z 20005KT 28/18 A3007 RMK A01 T02830179  RH  053%=      5-min Rain = 0
KCR2 150217Z 19005KT 28/18 A3007 RMK A01 T02830178  RH  053%=      5-min Rain = 0
KCR2 150218Z 19005KT 28/18 A3007 RMK A01 T02830178  RH  053%=      5-min Rain = 0
KCR2 150219Z 20005KT 28/18 A3007 RMK A01 T02840179  RH  053%=      5-min Rain = 0
KCR2 150220Z 20006KT 28/18 A3007 RMK A01 T02830178  RH  053%=      5-min Rain = 0
KCR2 150221Z 20006KT 28/18 A3007 RMK A01 T02830179  RH  053%=      5-min Rain = 0
KCR2 150222Z 20006KT 28/18 A3007 RMK A01 T02830178  RH  053%=      5-min Rain = 0
KCR2 150223Z 20006KT 28/18 A3007 RMK A01 T02830178  RH  053%=      5-min Rain = 0
KCR2 150224Z 20005KT 28/18 A3007 RMK A01 T02840178  RH  053%=      5-min Rain = 0
KCR2 150225Z 20005KT 28/18 A3007 RMK A01 T02840178  RH  053%=      5-min Rain = 0
KCR2 150226Z 21005KT 28/18 A3007 RMK A01 T02840178  RH  053%=      5-min Rain = 0
KCR2 150227Z 21004KT 28/18 A3007 RMK A01 T02840178  RH  053%=      5-min Rain = 0
KCR2 150228Z 21004KT 28/18 A3007 RMK A01 T02840178  RH  053%=      5-min Rain = 0
KCR2 150229Z 20004KT 28/18 A3007 RMK A01 T02840179  RH  053%=      5-min Rain = 0
KCR2 150230Z 21004KT 28/18 A3007 RMK A01 T02830178  RH  053%=      5-min Rain = 0
KCR2 150231Z 21003KT 28/18 A3007 RMK A01 T02830179  RH  053%=      5-min Rain = 0
KCR2 150232Z 21003KT 28/18 A3008 RMK A01 T02830178  RH  053%=      5-min Rain = 0
KCR2 150233Z 21003KT 28/18 A3008 RMK A01 T02830178  RH  053%=      5-min Rain = 0
KCR2 150234Z 21002KT 28/18 A3008 RMK A01 T02830179  RH  053%=      5-min Rain = 0
KCR2 150235Z 21003KT 28/18 A3008 RMK A01 T02830178  RH  053%=      5-min Rain = 0
KCR2 150236Z 21003KT 28/18 A3008 RMK A01 T02830178  RH  053%=      5-min Rain = 0
KCR2 150237Z 21002KT 28/18 A3008 RMK A01 T02830178  RH  053%=      5-min Rain = 0
KCR2 150238Z 21002KT 28/18 A3008 RMK A01 T02830178  RH  053%=      5-min Rain = 0
KCR2 150239Z 20002KT 28/18 A3008 RMK A01 T02820178  RH  053%=      5-min Rain = 0
KCR2 150240Z 21001KT 28/18 A3008 RMK A01 T02820177  RH  053%=      5-min Rain = 0
KCR2 150241Z 20001KT 28/18 A3008 RMK A01 T02820177  RH  053%=      5-min Rain = 0
KCR2 150242Z 21001KT 28/18 A3008 RMK A01 T02820177  RH  053%=      5-min Rain = 0
KCR2 150243Z 21002KT 28/18 A3008 RMK A01 T02820177  RH  053%=      5-min Rain = 0
KCR2 150244Z 19002KT 28/18 A3008 RMK A01 T02820177  RH  053%=      5-min Rain = 0
KCR2 150245Z 22001KT 28/18 A3008 RMK A01 T02820177  RH  053%=      5-min Rain = 0
KCR2 150246Z 23001KT 28/18 A3008 RMK A01 T02830177  RH  053%=      5-min Rain = 0
KCR2 150247Z 25001KT 28/18 A3008 RMK A01 T02830177  RH  053%=      5-min Rain = 0
KCR2 150248Z 24001KT 28/18 A3008 RMK A01 T02830177  RH  053%=      5-min Rain = 0
KCR2 150249Z 25002KT 28/18 A3008 RMK A01 T02830178  RH  053%=      5-min Rain = 0
KCR2 150250Z 23001KT 28/18 A3008 RMK A01 T02830178  RH  053%=      5-min Rain = 0
KCR2 150251Z 22001KT 28/18 A3008 RMK A01 T02830178  RH  053%=      5-min Rain = 0
KCR2 150252Z 23001KT 28/18 A3008 RMK A01 T02830178  RH  053%=      5-min Rain = 0
KCR2 150253Z 22001KT 28/18 A3009 RMK A01 T02830178  RH  053%=      5-min Rain = 0
KCR2 150254Z 24001KT 28/18 A3009 RMK A01 T02830178  RH  053%=      5-min Rain = 0
KCR2 150255Z 27001KT 28/18 A3009 RMK A01 T02830178  RH  053%=      5-min Rain = 0
KCR2 150256Z 28001KT 28/18 A3009 RMK A01 T02830178  RH  053%=      5-min Rain = 0
KCR2 150257Z 28001KT 28/18 A3009 RMK A01 T02820178  RH  053%=      5-min Rain = 0
KCR2 150258Z 30001KT 28/18 A3009 RMK A01 T02820178  RH  053%=      5-min Rain = 0
KCR2 150259Z 30000KT 28/18 A3009 RMK A01 T02820178  RH  053%=      5-min Rain = 0
KCR2 150300Z 01000KT 28/18 A3009 RMK A01 T02820178  RH  053%=      5-min Rain = 0
KCR2 150301Z 03001KT 28/18 A3009 RMK A01 T02820178  RH  053%=      5-min Rain = 0
KCR2 150302Z 04001KT 28/18 A3009 RMK A01 T02820178  RH  053%=      5-min Rain = 0
KCR2 150303Z 04001KT 28/18 A3009 RMK A01 T02820178  RH  053%=      5-min Rain = 0
KCR2 150304Z 04000KT 28/18 A3009 RMK A01 T02820178  RH  053%=      5-min Rain = 0
KCR2 150305Z 00000KT 28/18 A3009 RMK A01 T02810178  RH  053%=      5-min Rain = 0
KCR2 150306Z 00000KT 28/18 A3009 RMK A01 T02810178  RH  053%=      5-min Rain = 0
KCR2 150307Z 00000KT 28/18 A3009 RMK A01 T02810178  RH  053%=      5-min Rain = 0
KCR2 150308Z 00000KT 28/18 A3009 RMK A01 T02810178  RH  053%=      5-min Rain = 0
KCR2 150309Z 00000KT 28/18 A3009 RMK A01 T02810178  RH  053%=      5-min Rain = 0
KCR2 150310Z 00000KT 28/18 A3009 RMK A01 T02810178  RH  053%=      5-min Rain = 0
KCR2 150311Z 00000KT 28/18 A3009 RMK A01 T02810178  RH  053%=      5-min Rain = 0
KCR2 150312Z 00001KT 28/18 A3009 RMK A01 T02810178  RH  053%=      5-min Rain = 0
KCR2 150313Z 35001KT 28/18 A3009 RMK A01 T02810178  RH  053%=      5-min Rain = 0
KCR2 150314Z 34002KT 28/18 A3009 RMK A01 T02810178  RH  054%=      5-min Rain = 0
KCR2 150315Z 33002KT 28/18 A3009 RMK A01 T02810178  RH  054%=      5-min Rain = 0
KCR2 150316Z 33002KT 28/18 A3009 RMK A01 T02800178  RH  054%=      5-min Rain = 0
KCR2 150317Z 33003KT 28/18 A3009 RMK A01 T02790177  RH  054%=      5-min Rain = 0
KCR2 150318Z 33003KT 28/18 A3009 RMK A01 T02790177  RH  054%=      5-min Rain = 0
KCR2 150319Z 33003KT 28/18 A3009 RMK A01 T02780177  RH  054%=      5-min Rain = 0
KCR2 150320Z 33003KT 28/18 A3009 RMK A01 T02780177  RH  054%=      5-min Rain = 0
KCR2 150321Z 33003KT 28/18 A3009 RMK A01 T02770177  RH  054%=      5-min Rain = 0
KCR2 150322Z 33004KT 28/18 A3009 RMK A01 T02770177  RH  054%=      5-min Rain = 0
KCR2 150323Z 33003KT 28/18 A3009 RMK A01 T02770177  RH  054%=      5-min Rain = 0
KCR2 150324Z 33003KT 28/18 A301 RMK A01 T02770177  RH  054%=      5-min Rain = 0
KCR2 150325Z 34003KT 28/18 A301 RMK A01 T02770177  RH  054%=      5-min Rain = 0
KCR2 150326Z 34002KT 28/18 A301 RMK A01 T02770177  RH  054%=      5-min Rain = 0
KCR2 150327Z 35002KT 28/18 A301 RMK A01 T02770177  RH  054%=      5-min Rain = 0
KCR2 150328Z 35002KT 28/18 A301 RMK A01 T02770177  RH  054%=      5-min Rain = 0
KCR2 150329Z 00002KT 28/18 A301 RMK A01 T02770176  RH  054%=      5-min Rain = 0
KCR2 150330Z 01001KT 28/18 A301 RMK A01 T02770176  RH  054%=      5-min Rain = 0
KCR2 150331Z 02001KT 28/18 A301 RMK A01 T02770176  RH  054%=      5-min Rain = 0
KCR2 150332Z 03001KT 28/18 A301 RMK A01 T02780176  RH  054%=      5-min Rain = 0
KCR2 150333Z 02001KT 28/18 A301 RMK A01 T02780176  RH  054%=      5-min Rain = 0
KCR2 150334Z 01001KT 28/18 A301 RMK A01 T02790176  RH  054%=      5-min Rain = 0
KCR2 150335Z 01001KT 28/18 A301 RMK A01 T02790176  RH  054%=      5-min Rain = 0
KCR2 150336Z 01001KT 28/18 A301 RMK A01 T02790176  RH  053%=      5-min Rain = 0
KCR2 150337Z 00001KT 28/18 A301 RMK A01 T02790176  RH  053%=      5-min Rain = 0
KCR2 150338Z 36001KT 28/18 A301 RMK A01 T02790176  RH  053%=      5-min Rain = 0
KCR2 150339Z 00001KT 28/18 A301 RMK A01 T02800176  RH  053%=      5-min Rain = 0
KCR2 150340Z 00001KT 28/18 A301 RMK A01 T02800176  RH  053%=      5-min Rain = 0
KCR2 150341Z 00001KT 28/18 A301 RMK A01 T02800176  RH  053%=      5-min Rain = 0
KCR2 150342Z 01001KT 28/18 A301 RMK A01 T02800176  RH  053%=      5-min Rain = 0
KCR2 150343Z 00000KT 28/18 A301 RMK A01 T02800176  RH  053%=      5-min Rain = 0
KCR2 150344Z 00000KT 28/18 A301 RMK A01 T02790176  RH  053%=      5-min Rain = 0
KCR2 150345Z 15000KT 28/18 A301 RMK A01 T02800176  RH  053%=      5-min Rain = 0
KCR2 150346Z 16002KT 28/18 A301 RMK A01 T02800176  RH  053%=      5-min Rain = 0
KCR2 150347Z 16002KT 28/18 A301 RMK A01 T02800176  RH  053%=      5-min Rain = 0
KCR2 150348Z 16001KT 28/18 A301 RMK A01 T02800175  RH  053%=      5-min Rain = 0
KCR2 150349Z 14000KT 28/18 A301 RMK A01 T02810175  RH  053%=      5-min Rain = 0
KCR2 150350Z 00000KT 28/18 A301 RMK A01 T02810175  RH  053%=      5-min Rain = 0
KCR2 150351Z 00000KT 28/18 A301 RMK A01 T02810176  RH  053%=      5-min Rain = 0
KCR2 150352Z 13001KT 28/18 A301 RMK A01 T02810175  RH  053%=      5-min Rain = 0
KCR2 150353Z 14002KT 28/18 A301 RMK A01 T02810175  RH  053%=      5-min Rain = 0
KCR2 150354Z 15002KT 28/18 A301 RMK A01 T02810175  RH  053%=      5-min Rain = 0
KCR2 150355Z 14001KT 28/18 A301 RMK A01 T02810175  RH  053%=      5-min Rain = 0
KCR2 150356Z 12002KT 28/18 A301 RMK A01 T02810175  RH  053%=      5-min Rain = 0
KCR2 150357Z 13002KT 28/18 A301 RMK A01 T02810175  RH  053%=      5-min Rain = 0
KCR2 150358Z 14003KT 28/18 A301 RMK A01 T02810175  RH  053%=      5-min Rain = 0
KCR2 150359Z 15003KT 28/18 A301 RMK A01 T02810175  RH  053%=      5-min Rain = 0
KCR2 150400Z 15004KT 28/18 A301 RMK A01 T02800175  RH  053%=      5-min Rain = 0
KCR2 150401Z 16003KT 28/17 A301 RMK A01 T02800174  RH  053%=      5-min Rain = 0
KCR2 150402Z 17002KT 28/17 A301 RMK A01 T02800174  RH  052%=      5-min Rain = 0
KCR2 150403Z 18002KT 28/17 A301 RMK A01 T02810174  RH  052%=      5-min Rain = 0
KCR2 150404Z 16002KT 28/17 A301 RMK A01 T02810174  RH  052%=      5-min Rain = 0
KCR2 150405Z 14001KT 28/17 A301 RMK A01 T02810174  RH  052%=      5-min Rain = 0
KCR2 150406Z 13002KT 28/17 A301 RMK A01 T02810174  RH  052%=      5-min Rain = 0
KCR2 150407Z 13002KT 28/18 A3011 RMK A01 T02810175  RH  052%=      5-min Rain = 0
KCR2 150408Z 13002KT 28/18 A3011 RMK A01 T02810175  RH  052%=      5-min Rain = 0
KCR2 150409Z 13002KT 28/17 A3011 RMK A01 T02800174  RH  053%=      5-min Rain = 0
KCR2 150410Z 13002KT 28/18 A3011 RMK A01 T02800175  RH  053%=      5-min Rain = 0
KCR2 150411Z 14003KT 28/18 A3011 RMK A01 T02800175  RH  053%=      5-min Rain = 0
KCR2 150412Z 14003KT 28/18 A3011 RMK A01 T02790175  RH  053%=      5-min Rain = 0
KCR2 150413Z 14003KT 28/18 A3011 RMK A01 T02790175  RH  053%=      5-min Rain = 0
KCR2 150414Z 15003KT 28/18 A3011 RMK A01 T02790175  RH  053%=      5-min Rain = 0
KCR2 150415Z 15003KT 28/17 A3011 RMK A01 T02790174  RH  053%=      5-min Rain = 0
KCR2 150416Z 17002KT 28/17 A3011 RMK A01 T02780173  RH  053%=      5-min Rain = 0
KCR2 150417Z 16002KT 28/17 A3011 RMK A01 T02780173  RH  053%=      5-min Rain = 0
KCR2 150418Z 18002KT 28/17 A3011 RMK A01 T02780173  RH  053%=      5-min Rain = 0
KCR2 150419Z 18003KT 28/17 A3011 RMK A01 T02780172  RH  053%=      5-min Rain = 0
KCR2 150420Z 17004KT 28/17 A3011 RMK A01 T02780171  RH  052%=      5-min Rain = 0
KCR2 150421Z 16005KT 28/17 A3011 RMK A01 T02780170  RH  052%=      5-min Rain = 0
KCR2 150422Z 17005KT 28/17 A3011 RMK A01 T02780169  RH  051%=      5-min Rain = 0
KCR2 150423Z 17004KT 28/17 A301 RMK A01 T02790166  RH  050%=      5-min Rain = 0
KCR2 150424Z 18004KT 28/17 A301 RMK A01 T02800166  RH  050%=      5-min Rain = 0
KCR2 150425Z 18005KT 28/17 A301 RMK A01 T02810166  RH  050%=      5-min Rain = 0
KCR2 150426Z 17005KT 28/17 A301 RMK A01 T02820166  RH  049%=      5-min Rain = 0
KCR2 150427Z 16004KT 28/17 A301 RMK A01 T02830166  RH  049%=      5-min Rain = 0
KCR2 150428Z 16004KT 28/17 A301 RMK A01 T02830166  RH  049%=      5-min Rain = 0
KCR2 150429Z 17004KT 28/17 A301 RMK A01 T02830166  RH  049%=      5-min Rain = 0
KCR2 150430Z 17004KT 28/17 A301 RMK A01 T02830166  RH  049%=      5-min Rain = 0
KCR2 150431Z 17004KT 28/17 A301 RMK A01 T02830166  RH  049%=      5-min Rain = 0
KCR2 150432Z 16004KT 28/17 A301 RMK A01 T02830167  RH  049%=      5-min Rain = 0
KCR2 150433Z 16003KT 28/17 A301 RMK A01 T02830166  RH  049%=      5-min Rain = 0
KCR2 150434Z 18003KT 28/17 A301 RMK A01 T02830167  RH  049%=      5-min Rain = 0
KCR2 150435Z 17003KT 28/17 A301 RMK A01 T02830167  RH  049%=      5-min Rain = 0
KCR2 150436Z 17003KT 28/17 A301 RMK A01 T02830167  RH  049%=      5-min Rain = 0
KCR2 150437Z 18003KT 28/17 A301 RMK A01 T02830167  RH  049%=      5-min Rain = 0
KCR2 150438Z 17002KT 28/17 A301 RMK A01 T02830166  RH  049%=      5-min Rain = 0
KCR2 150439Z 18002KT 28/17 A301 RMK A01 T02820166  RH  049%=      5-min Rain = 0
KCR2 150440Z 18002KT 28/17 A301 RMK A01 T02820166  RH  049%=      5-min Rain = 0
KCR2 150441Z 17002KT 28/17 A301 RMK A01 T02820165  RH  049%=      5-min Rain = 0
KCR2 150442Z 18003KT 28/16 A301 RMK A01 T02820164  RH  049%=      5-min Rain = 0
KCR2 150443Z 17003KT 28/16 A301 RMK A01 T02820162  RH  048%=      5-min Rain = 0
KCR2 150444Z 17003KT 28/16 A301 RMK A01 T02820162  RH  048%=      5-min Rain = 0
KCR2 150445Z 17002KT 28/16 A301 RMK A01 T02820161  RH  048%=      5-min Rain = 0
KCR2 150446Z 17002KT 28/16 A301 RMK A01 T02820162  RH  048%=      5-min Rain = 0
KCR2 150447Z 18002KT 28/16 A301 RMK A01 T02820162  RH  048%=      5-min Rain = 0
KCR2 150448Z 20002KT 28/16 A301 RMK A01 T02820162  RH  048%=      5-min Rain = 0
KCR2 150449Z 20002KT 28/16 A301 RMK A01 T02810162  RH  048%=      5-min Rain = 0
KCR2 150450Z 19003KT 28/16 A301 RMK A01 T02810162  RH  048%=      5-min Rain = 0
KCR2 150451Z 19002KT 28/16 A301 RMK A01 T02810162  RH  048%=      5-min Rain = 0
KCR2 150452Z 18002KT 28/16 A301 RMK A01 T02810161  RH  048%=      5-min Rain = 0
KCR2 150453Z 17003KT 28/16 A301 RMK A01 T02800161  RH  048%=      5-min Rain = 0
KCR2 150454Z 17003KT 28/16 A301 RMK A01 T02800161  RH  048%=      5-min Rain = 0
KCR2 150455Z 17003KT 28/16 A3011 RMK A01 T02800161  RH  049%=      5-min Rain = 0
KCR2 150456Z 16003KT 28/16 A3011 RMK A01 T02800161  RH  049%=      5-min Rain = 0
KCR2 150457Z 18002KT 28/16 A3011 RMK A01 T02790162  RH  049%=      5-min Rain = 0
KCR2 150458Z 18002KT 28/16 A3011 RMK A01 T02790162  RH  049%=      5-min Rain = 0
KCR2 150459Z 18002KT 28/16 A301 RMK A01 T02790161  RH  049%=      5-min Rain = 0

Page generated in 0.1461 seconds.